THY2JS CYUL-LTFM
Flight info
| Callsign | THY2JS |
|---|---|
| Flight time | 8h 27m |
| Altitude | 35000 |
| Route | ANTEG DCT OBRON DCT MOBUB DCT EBMOS DCT IMORI DCT KITOP DCT CEFOU N645B RIKAL/M084F350 DCT 53N050W 55N040W 56N030W 56N020W DCT RESNO DCT NETKI/N0488F370 DCT REVNU DCT OLAPO DCT LIFFY DCT DOLAS DCT NAVPI DCT TIVUN DCT ESAMA DCT OSBIT DCT TENLO DCT LAMSI DCT STEIN DCT INVED DCT TIMUR L606 GASRU T390 RILEX |
| Aircraft | B77W/H-SDE1E2E3FGHIJ2J3J4J5M1RWXY/LB1D1 |
Departure
| Time | 2026-05-07 21:46 |
|---|---|
| Airport | Montreal / Pierre Elliott Trudeau International Airport (CYUL) |
Arrival
| Time | 2026-05-08 06:13 |
|---|---|
| Airport | İstanbul Airport (LTFM) |
| Time | Latitude | Longitude | Altitude | Speed | Heading |
|---|---|---|---|---|---|
| 2026-05-07 21:18 | 45.45986 | -73.75738 | 109 ft | 0 kts | 177° |
| 2026-05-07 21:32 | 45.46006 | -73.75739 | 107 ft | 4 kts | 180° |
| 2026-05-07 21:32 | 45.46030 | -73.75739 | 107 ft | 4 kts | 177° |
| 2026-05-07 21:32 | 45.46051 | -73.75749 | 107 ft | 4 kts | 120° |
| 2026-05-07 21:32 | 45.46057 | -73.75784 | 105 ft | 4 kts | 89° |
| 2026-05-07 21:33 | 45.46056 | -73.75807 | 105 ft | 1 kts | 88° |
| 2026-05-07 21:33 | 45.46056 | -73.75810 | 105 ft | 0 kts | 88° |
| 2026-05-07 21:38 | 45.46056 | -73.75807 | 105 ft | 3 kts | 88° |
| 2026-05-07 21:38 | 45.46085 | -73.75733 | 108 ft | 11 kts | 24° |
| 2026-05-07 21:38 | 45.46164 | -73.75724 | 107 ft | 11 kts | 358° |
| 2026-05-07 21:38 | 45.46243 | -73.75728 | 108 ft | 11 kts | 358° |
| 2026-05-07 21:39 | 45.46295 | -73.75660 | 109 ft | 12 kts | 81° |
| 2026-05-07 21:39 | 45.46301 | -73.75521 | 109 ft | 23 kts | 87° |
| 2026-05-07 21:39 | 45.46308 | -73.75272 | 109 ft | 26 kts | 88° |
| 2026-05-07 21:39 | 45.46315 | -73.75016 | 109 ft | 26 kts | 87° |
| 2026-05-07 21:40 | 45.46323 | -73.74761 | 110 ft | 26 kts | 87° |
| 2026-05-07 21:40 | 45.46331 | -73.74505 | 110 ft | 26 kts | 88° |
| 2026-05-07 21:40 | 45.46338 | -73.74249 | 110 ft | 26 kts | 87° |
| 2026-05-07 21:40 | 45.46346 | -73.73997 | 110 ft | 26 kts | 87° |
| 2026-05-07 21:41 | 45.46377 | -73.73751 | 109 ft | 26 kts | 51° |
| 2026-05-07 21:41 | 45.46507 | -73.73575 | 112 ft | 26 kts | 42° |
| 2026-05-07 21:41 | 45.46640 | -73.73402 | 112 ft | 26 kts | 43° |
| 2026-05-07 21:41 | 45.46772 | -73.73229 | 114 ft | 26 kts | 42° |
| 2026-05-07 21:42 | 45.46904 | -73.73056 | 115 ft | 26 kts | 43° |
| 2026-05-07 21:42 | 45.47035 | -73.72882 | 117 ft | 26 kts | 42° |
| 2026-05-07 21:42 | 45.47166 | -73.72713 | 120 ft | 26 kts | 42° |
| 2026-05-07 21:42 | 45.47298 | -73.72540 | 120 ft | 26 kts | 43° |
| 2026-05-07 21:43 | 45.47430 | -73.72366 | 119 ft | 26 kts | 43° |
| 2026-05-07 21:43 | 45.47562 | -73.72194 | 122 ft | 26 kts | 42° |
| 2026-05-07 21:43 | 45.47693 | -73.72022 | 122 ft | 24 kts | 43° |
| 2026-05-07 21:43 | 45.47792 | -73.71892 | 123 ft | 18 kts | 43° |
| 2026-05-07 21:44 | 45.47866 | -73.71774 | 123 ft | 16 kts | 76° |
| 2026-05-07 21:44 | 45.47828 | -73.71658 | 123 ft | 12 kts | 129° |
| 2026-05-07 21:44 | 45.47771 | -73.71575 | 126 ft | 12 kts | 149° |
| 2026-05-07 21:44 | 45.47698 | -73.71609 | 125 ft | 12 kts | 223° |
| 2026-05-07 21:45 | 45.47685 | -73.71625 | 125 ft | 0 kts | 222° |
| 2026-05-07 21:45 | 45.47642 | -73.71682 | 124 ft | 24 kts | 222° |
| 2026-05-07 21:45 | 45.47332 | -73.72091 | 120 ft | 100 kts | 223° |
| 2026-05-07 21:46 | 45.46653 | -73.72982 | 116 ft | 167 kts | 223° |
| 2026-05-07 21:46 | 45.45712 | -73.74176 | 406 ft | 190 kts | 227° |
| 2026-05-07 21:46 | 45.44704 | -73.75477 | 1165 ft | 191 kts | 230° |
| 2026-05-07 21:46 | 45.43874 | -73.76886 | 2146 ft | 185 kts | 236° |
| 2026-05-07 21:47 | 45.43014 | -73.78391 | 2457 ft | 208 kts | 233° |
| 2026-05-07 21:47 | 45.42034 | -73.80018 | 2823 ft | 223 kts | 236° |
| 2026-05-07 21:47 | 45.41497 | -73.82062 | 3129 ft | 231 kts | 273° |
| 2026-05-07 21:47 | 45.42065 | -73.84196 | 3785 ft | 240 kts | 308° |
| 2026-05-07 21:48 | 45.43424 | -73.85625 | 4553 ft | 250 kts | 331° |
| 2026-05-07 21:48 | 45.45134 | -73.86282 | 5331 ft | 260 kts | 352° |
| 2026-05-07 21:48 | 45.46960 | -73.85942 | 6075 ft | 273 kts | 17° |
| 2026-05-07 21:48 | 45.48586 | -73.84483 | 6732 ft | 282 kts | 35° |
| 2026-05-07 21:49 | 45.50113 | -73.82670 | 7390 ft | 286 kts | 36° |
| 2026-05-07 21:49 | 45.51631 | -73.80841 | 8180 ft | 286 kts | 36° |
| 2026-05-07 21:49 | 45.53168 | -73.79001 | 8874 ft | 290 kts | 35° |
| 2026-05-07 21:49 | 45.54709 | -73.77177 | 9566 ft | 293 kts | 35° |
| 2026-05-07 21:50 | 45.56291 | -73.75321 | 10215 ft | 296 kts | 35° |
| 2026-05-07 21:50 | 45.57923 | -73.73422 | 10552 ft | 313 kts | 35° |
| 2026-05-07 21:50 | 45.59687 | -73.71384 | 10736 ft | 336 kts | 35° |
| 2026-05-07 21:50 | 45.61575 | -73.69208 | 10927 ft | 360 kts | 35° |
| 2026-05-07 21:51 | 45.63575 | -73.66901 | 11278 ft | 377 kts | 36° |
| 2026-05-07 21:51 | 45.65642 | -73.64512 | 11912 ft | 386 kts | 36° |
| 2026-05-07 21:51 | 45.67754 | -73.62070 | 12697 ft | 393 kts | 36° |
| 2026-05-07 21:51 | 45.69865 | -73.59628 | 13527 ft | 399 kts | 36° |
| 2026-05-07 21:52 | 45.72040 | -73.57112 | 14276 ft | 404 kts | 35° |
| 2026-05-07 21:52 | 45.74246 | -73.54560 | 15024 ft | 410 kts | 35° |
| 2026-05-07 21:52 | 45.76483 | -73.51971 | 15782 ft | 415 kts | 35° |
| 2026-05-07 21:52 | 45.78743 | -73.49350 | 16612 ft | 419 kts | 36° |
| 2026-05-07 21:53 | 45.81025 | -73.46702 | 17387 ft | 424 kts | 35° |
| 2026-05-07 21:53 | 45.83264 | -73.44102 | 18076 ft | 431 kts | 35° |
| 2026-05-07 21:53 | 45.85632 | -73.41349 | 18306 ft | 419 kts | 39° |
| 2026-05-07 21:53 | 45.87795 | -73.38597 | 19463 ft | 415 kts | 45° |
| 2026-05-07 21:54 | 45.89789 | -73.35542 | 20007 ft | 423 kts | 47° |
| 2026-05-07 21:54 | 45.91794 | -73.32392 | 20529 ft | 430 kts | 47° |
| 2026-05-07 21:54 | 45.93818 | -73.29264 | 21122 ft | 435 kts | 46° |
| 2026-05-07 21:54 | 45.95897 | -73.26087 | 21772 ft | 438 kts | 46° |
| 2026-05-07 21:55 | 45.97988 | -73.22879 | 22405 ft | 441 kts | 47° |
| 2026-05-07 21:55 | 46.00090 | -73.19636 | 22976 ft | 445 kts | 47° |
| 2026-05-07 21:55 | 46.02211 | -73.16356 | 23516 ft | 449 kts | 47° |
| 2026-05-07 21:55 | 46.04348 | -73.13046 | 24061 ft | 453 kts | 47° |
| 2026-05-07 21:56 | 46.06500 | -73.09710 | 24577 ft | 456 kts | 47° |
| 2026-05-07 21:56 | 46.08665 | -73.06351 | 25097 ft | 460 kts | 47° |
| 2026-05-07 21:56 | 46.10851 | -73.02954 | 25591 ft | 463 kts | 47° |
| 2026-05-07 21:56 | 46.13050 | -72.99537 | 26048 ft | 466 kts | 47° |
| 2026-05-07 21:57 | 46.14304 | -72.97585 | 26315 ft | 468 kts | 47° |
| 2026-05-07 21:57 | 46.15784 | -72.95274 | 26623 ft | 470 kts | 48° |
| 2026-05-07 21:57 | 46.17885 | -72.91630 | 28089 ft | 479 kts | 51° |
| 2026-05-07 21:58 | 46.19759 | -72.87551 | 28088 ft | 494 kts | 57° |
| 2026-05-07 21:58 | 46.21539 | -72.83231 | 28193 ft | 506 kts | 58° |
| 2026-05-07 21:58 | 46.23347 | -72.78782 | 28269 ft | 518 kts | 58° |
| 2026-05-07 21:58 | 46.25196 | -72.74234 | 28373 ft | 529 kts | 58° |
| 2026-05-07 21:59 | 46.27086 | -72.69613 | 28520 ft | 537 kts | 58° |
| 2026-05-07 21:59 | 46.28980 | -72.65010 | 28936 ft | 539 kts | 58° |
| 2026-05-07 21:59 | 46.30903 | -72.60350 | 29319 ft | 541 kts | 58° |
| 2026-05-07 21:59 | 46.32846 | -72.55650 | 29650 ft | 544 kts | 58° |
| 2026-05-07 22:00 | 46.34792 | -72.50939 | 29926 ft | 546 kts | 58° |
| 2026-05-07 22:00 | 46.36756 | -72.46176 | 30068 ft | 552 kts | 58° |
| 2026-05-07 22:00 | 46.38728 | -72.41382 | 30341 ft | 554 kts | 58° |
| 2026-05-07 22:00 | 46.40701 | -72.36573 | 30760 ft | 552 kts | 58° |
| 2026-05-07 22:01 | 46.42634 | -72.31851 | 31194 ft | 550 kts | 58° |
| 2026-05-07 22:01 | 46.44581 | -72.27086 | 31667 ft | 547 kts | 58° |
| 2026-05-07 22:01 | 46.46517 | -72.22341 | 32040 ft | 547 kts | 58° |
| 2026-05-07 22:01 | 46.47826 | -72.19128 | 32251 ft | 548 kts | 58° |
| 2026-05-07 22:02 | 46.49740 | -72.14424 | 32536 ft | 548 kts | 59° |
| 2026-05-07 22:02 | 46.51683 | -72.09642 | 32852 ft | 549 kts | 59° |
| 2026-05-07 22:02 | 46.53619 | -72.04869 | 33190 ft | 548 kts | 59° |
| 2026-05-07 22:02 | 46.55555 | -72.00086 | 33522 ft | 548 kts | 59° |
| 2026-05-07 22:03 | 46.57485 | -71.95288 | 33825 ft | 549 kts | 59° |
| 2026-05-07 22:03 | 46.59402 | -71.90497 | 34109 ft | 547 kts | 59° |
| 2026-05-07 22:03 | 46.61313 | -71.85707 | 34324 ft | 548 kts | 59° |
| 2026-05-07 22:03 | 46.63232 | -71.80893 | 34542 ft | 548 kts | 59° |
| 2026-05-07 22:04 | 46.65144 | -71.76092 | 34694 ft | 550 kts | 59° |
| 2026-05-07 22:04 | 46.67044 | -71.71317 | 34689 ft | 553 kts | 59° |
| 2026-05-07 22:04 | 46.71082 | -71.61816 | 34741 ft | 546 kts | 53° |
| 2026-05-07 22:05 | 46.76010 | -71.53455 | 34760 ft | 541 kts | 45° |
| 2026-05-07 22:05 | 46.80691 | -71.44886 | 34742 ft | 541 kts | 58° |
| 2026-05-07 22:06 | 46.84408 | -71.35423 | 34745 ft | 541 kts | 60° |
| 2026-05-07 22:06 | 46.88114 | -71.25800 | 34738 ft | 543 kts | 60° |
| 2026-05-07 22:07 | 46.91868 | -71.16189 | 34756 ft | 546 kts | 60° |
| 2026-05-07 22:07 | 46.95671 | -71.06521 | 34754 ft | 549 kts | 60° |
| 2026-05-07 22:08 | 46.99459 | -70.96874 | 34743 ft | 550 kts | 60° |
| 2026-05-07 22:08 | 47.03267 | -70.87127 | 34742 ft | 550 kts | 60° |
| 2026-05-07 22:09 | 47.07062 | -70.77372 | 34741 ft | 549 kts | 60° |
| 2026-05-07 22:09 | 47.10806 | -70.67711 | 34721 ft | 546 kts | 60° |
| 2026-05-07 22:10 | 47.14547 | -70.58023 | 34725 ft | 545 kts | 60° |
| 2026-05-07 22:10 | 47.18286 | -70.48308 | 34725 ft | 544 kts | 60° |
| 2026-05-07 22:11 | 47.22008 | -70.38600 | 34725 ft | 544 kts | 61° |
| 2026-05-07 22:11 | 47.25702 | -70.28929 | 34724 ft | 545 kts | 61° |
| 2026-05-07 22:12 | 47.29415 | -70.19176 | 34724 ft | 546 kts | 61° |
| 2026-05-07 22:12 | 47.33129 | -70.09384 | 34729 ft | 547 kts | 61° |
| 2026-05-07 22:13 | 47.36845 | -69.99550 | 34726 ft | 549 kts | 61° |
| 2026-05-07 22:13 | 47.40542 | -69.89732 | 34724 ft | 551 kts | 61° |
| 2026-05-07 22:14 | 47.44261 | -69.79817 | 34714 ft | 551 kts | 62° |
| 2026-05-07 22:14 | 47.47974 | -69.69882 | 34717 ft | 551 kts | 62° |
| 2026-05-07 22:15 | 47.51654 | -69.60001 | 34720 ft | 551 kts | 62° |
| 2026-05-07 22:15 | 47.55341 | -69.50061 | 34682 ft | 550 kts | 62° |
| 2026-05-07 22:16 | 47.59013 | -69.40124 | 34716 ft | 549 kts | 62° |
| 2026-05-07 22:16 | 47.62682 | -69.30159 | 34714 ft | 550 kts | 62° |
| 2026-05-07 22:17 | 47.66317 | -69.20249 | 34724 ft | 550 kts | 62° |
| 2026-05-07 22:17 | 47.69971 | -69.10248 | 34711 ft | 551 kts | 62° |
| 2026-05-07 22:18 | 47.75444 | -68.95240 | 34712 ft | 550 kts | 62° |
| 2026-05-07 22:19 | 47.79134 | -68.85279 | 34704 ft | 550 kts | 62° |
| 2026-05-07 22:19 | 47.82807 | -68.75372 | 34703 ft | 550 kts | 62° |
| 2026-05-07 22:20 | 47.86489 | -68.65377 | 34717 ft | 550 kts | 62° |
| 2026-05-07 22:20 | 47.90153 | -68.55369 | 34704 ft | 550 kts | 62° |
| 2026-05-07 22:21 | 47.93793 | -68.45386 | 34717 ft | 549 kts | 62° |
| 2026-05-07 22:21 | 47.97432 | -68.35366 | 34691 ft | 547 kts | 62° |
| 2026-05-07 22:22 | 48.01047 | -68.25379 | 34663 ft | 545 kts | 63° |
| 2026-05-07 22:22 | 48.04637 | -68.15425 | 34683 ft | 543 kts | 63° |
| 2026-05-07 22:23 | 48.08184 | -68.05551 | 34713 ft | 542 kts | 63° |
| 2026-05-07 22:23 | 48.11746 | -67.95596 | 34692 ft | 541 kts | 63° |
| 2026-05-07 22:24 | 48.15290 | -67.85654 | 34692 ft | 541 kts | 63° |
| 2026-05-07 22:24 | 48.18824 | -67.75703 | 34692 ft | 540 kts | 63° |
| 2026-05-07 22:25 | 48.22348 | -67.65744 | 34694 ft | 541 kts | 64° |
| 2026-05-07 22:25 | 48.25839 | -67.55837 | 34675 ft | 541 kts | 64° |
| 2026-05-07 22:26 | 48.29354 | -67.45826 | 34666 ft | 541 kts | 64° |
| 2026-05-07 22:26 | 48.32867 | -67.35783 | 34683 ft | 542 kts | 64° |
| 2026-05-07 22:27 | 48.36366 | -67.25742 | 34692 ft | 542 kts | 64° |
| 2026-05-07 22:27 | 48.39844 | -67.15719 | 34668 ft | 543 kts | 64° |
| 2026-05-07 22:28 | 48.43337 | -67.05616 | 34675 ft | 543 kts | 65° |
| 2026-05-07 22:28 | 48.46824 | -66.95490 | 34622 ft | 544 kts | 65° |
| 2026-05-07 22:29 | 48.50278 | -66.85419 | 34662 ft | 544 kts | 65° |
| 2026-05-07 22:29 | 48.53750 | -66.75258 | 34672 ft | 545 kts | 65° |
| 2026-05-07 22:30 | 48.57217 | -66.65073 | 34659 ft | 545 kts | 65° |
| 2026-05-07 22:30 | 48.60675 | -66.54872 | 34659 ft | 546 kts | 65° |
| 2026-05-07 22:31 | 48.64108 | -66.44703 | 34653 ft | 545 kts | 65° |
| 2026-05-07 22:31 | 48.67549 | -66.34471 | 34648 ft | 545 kts | 65° |
| 2026-05-07 22:32 | 48.70981 | -66.24224 | 34623 ft | 545 kts | 66° |
| 2026-05-07 22:32 | 48.74405 | -66.13962 | 34643 ft | 546 kts | 66° |
| 2026-05-07 22:33 | 48.77808 | -66.03721 | 34642 ft | 547 kts | 66° |
| 2026-05-07 22:33 | 48.81231 | -65.93372 | 34652 ft | 550 kts | 66° |
| 2026-05-07 22:34 | 48.84660 | -65.82970 | 34643 ft | 551 kts | 66° |
| 2026-05-07 22:34 | 48.88085 | -65.72539 | 34643 ft | 552 kts | 66° |
| 2026-05-07 22:35 | 48.91485 | -65.62138 | 34638 ft | 552 kts | 66° |
| 2026-05-07 22:35 | 48.94893 | -65.51669 | 34633 ft | 551 kts | 66° |
| 2026-05-07 22:36 | 48.98289 | -65.41187 | 34630 ft | 550 kts | 66° |
| 2026-05-07 22:36 | 49.01669 | -65.30723 | 34630 ft | 550 kts | 66° |
| 2026-05-07 22:37 | 49.05036 | -65.20252 | 34630 ft | 549 kts | 66° |
| 2026-05-07 22:37 | 49.08371 | -65.09835 | 34630 ft | 548 kts | 66° |
| 2026-05-07 22:38 | 49.11709 | -64.99368 | 34627 ft | 547 kts | 67° |
| 2026-05-07 22:38 | 49.15030 | -64.88907 | 34577 ft | 545 kts | 67° |
| 2026-05-07 22:39 | 49.18303 | -64.78558 | 34625 ft | 544 kts | 67° |
| 2026-05-07 22:39 | 49.21588 | -64.68121 | 34643 ft | 544 kts | 68° |
| 2026-05-07 22:40 | 49.24869 | -64.57655 | 34642 ft | 545 kts | 68° |
| 2026-05-07 22:40 | 49.28141 | -64.47173 | 34636 ft | 545 kts | 68° |
| 2026-05-07 22:41 | 49.31383 | -64.36748 | 34636 ft | 545 kts | 68° |
| 2026-05-07 22:41 | 49.34637 | -64.26240 | 34634 ft | 545 kts | 68° |
| 2026-05-07 22:42 | 49.37879 | -64.15724 | 34630 ft | 543 kts | 68° |
| 2026-05-07 22:42 | 49.41102 | -64.05224 | 34633 ft | 543 kts | 69° |
| 2026-05-07 22:43 | 49.44298 | -63.94769 | 34642 ft | 543 kts | 69° |
| 2026-05-07 22:43 | 49.47502 | -63.84240 | 34644 ft | 543 kts | 69° |
| 2026-05-07 22:44 | 49.50698 | -63.73697 | 34643 ft | 543 kts | 69° |
| 2026-05-07 22:44 | 49.53861 | -63.63214 | 34647 ft | 542 kts | 69° |
| 2026-05-07 22:45 | 49.57032 | -63.52661 | 34634 ft | 542 kts | 69° |
| 2026-05-07 22:45 | 49.60192 | -63.42100 | 34627 ft | 541 kts | 70° |
| 2026-05-07 22:46 | 49.63331 | -63.31561 | 34623 ft | 541 kts | 70° |
| 2026-05-07 22:46 | 49.66444 | -63.21065 | 34627 ft | 541 kts | 70° |
| 2026-05-07 22:47 | 49.69565 | -63.10495 | 34628 ft | 540 kts | 70° |
| 2026-05-07 22:47 | 49.72677 | -62.99910 | 34624 ft | 540 kts | 70° |
| 2026-05-07 22:48 | 49.75776 | -62.89325 | 34632 ft | 540 kts | 70° |
| 2026-05-07 22:48 | 49.78841 | -62.78810 | 34624 ft | 539 kts | 71° |
| 2026-05-07 22:49 | 49.81910 | -62.68234 | 34615 ft | 538 kts | 71° |
| 2026-05-07 22:49 | 49.84453 | -62.59434 | 34612 ft | 537 kts | 71° |
| 2026-05-07 22:50 | 49.87501 | -62.48840 | 34619 ft | 537 kts | 71° |
| 2026-05-07 22:50 | 49.90541 | -62.38231 | 34611 ft | 537 kts | 71° |
| 2026-05-07 22:51 | 49.93548 | -62.27693 | 34618 ft | 537 kts | 71° |
| 2026-05-07 22:51 | 49.96564 | -62.17075 | 34617 ft | 537 kts | 72° |
| 2026-05-07 22:52 | 49.99577 | -62.06418 | 34623 ft | 537 kts | 72° |
| 2026-05-07 22:52 | 50.02557 | -61.95835 | 34614 ft | 536 kts | 72° |
| 2026-05-07 22:53 | 50.05538 | -61.85197 | 34600 ft | 536 kts | 72° |
| 2026-05-07 22:53 | 50.08508 | -61.74551 | 34603 ft | 536 kts | 72° |
| 2026-05-07 22:54 | 50.11470 | -61.63885 | 34606 ft | 536 kts | 72° |
| 2026-05-07 22:54 | 50.14408 | -61.53255 | 34608 ft | 536 kts | 72° |
| 2026-05-07 22:55 | 50.17350 | -61.42568 | 34607 ft | 536 kts | 73° |
| 2026-05-07 22:55 | 50.20282 | -61.31866 | 34614 ft | 535 kts | 73° |
| 2026-05-07 22:56 | 50.23198 | -61.21176 | 34611 ft | 533 kts | 73° |
| 2026-05-07 22:56 | 50.26072 | -61.10589 | 34628 ft | 532 kts | 74° |
| 2026-05-07 22:57 | 50.28954 | -60.99925 | 34609 ft | 531 kts | 74° |
| 2026-05-07 22:57 | 50.31802 | -60.89336 | 34619 ft | 530 kts | 74° |
| 2026-05-07 22:58 | 50.34654 | -60.78682 | 34622 ft | 529 kts | 75° |
| 2026-05-07 22:58 | 50.37492 | -60.68031 | 34628 ft | 529 kts | 75° |
| 2026-05-07 22:59 | 50.40300 | -60.57444 | 34628 ft | 529 kts | 75° |
| 2026-05-07 22:59 | 50.43115 | -60.46787 | 34618 ft | 529 kts | 75° |
| 2026-05-07 23:00 | 50.45927 | -60.36083 | 34627 ft | 529 kts | 75° |
| 2026-05-07 23:00 | 50.48724 | -60.25391 | 34629 ft | 530 kts | 75° |
| 2026-05-07 23:01 | 50.51515 | -60.14669 | 34630 ft | 530 kts | 75° |
| 2026-05-07 23:01 | 50.54302 | -60.03917 | 34614 ft | 531 kts | 76° |
| 2026-05-07 23:02 | 50.57062 | -59.93220 | 34617 ft | 530 kts | 76° |
| 2026-05-07 23:02 | 50.59826 | -59.82456 | 34626 ft | 529 kts | 76° |
| 2026-05-07 23:03 | 50.62553 | -59.71787 | 34582 ft | 528 kts | 77° |
| 2026-05-07 23:03 | 50.65280 | -59.61067 | 34623 ft | 526 kts | 77° |
| 2026-05-07 23:04 | 50.67993 | -59.50341 | 34618 ft | 526 kts | 78° |
| 2026-05-07 23:04 | 50.70695 | -59.39607 | 34629 ft | 526 kts | 78° |
| 2026-05-07 23:05 | 50.73371 | -59.28930 | 34634 ft | 526 kts | 78° |
| 2026-05-07 23:05 | 50.76056 | -59.18163 | 34639 ft | 526 kts | 78° |
| 2026-05-07 23:06 | 50.78734 | -59.07376 | 34628 ft | 527 kts | 78° |
| 2026-05-07 23:06 | 50.81406 | -58.96558 | 34581 ft | 528 kts | 77° |
| 2026-05-07 23:07 | 50.84067 | -58.85733 | 34642 ft | 528 kts | 77° |
| 2026-05-07 23:07 | 50.86709 | -58.74927 | 34653 ft | 531 kts | 77° |
| 2026-05-07 23:08 | 50.89370 | -58.63990 | 34653 ft | 532 kts | 78° |
| 2026-05-07 23:08 | 50.92025 | -58.53032 | 34635 ft | 534 kts | 77° |
| 2026-05-07 23:09 | 50.94679 | -58.42025 | 34658 ft | 534 kts | 77° |
| 2026-05-07 23:09 | 50.97325 | -58.30989 | 34658 ft | 535 kts | 77° |
| 2026-05-07 23:10 | 50.99950 | -58.19991 | 34605 ft | 534 kts | 77° |
| 2026-05-07 23:10 | 51.02572 | -58.08946 | 34647 ft | 534 kts | 77° |
| 2026-05-07 23:11 | 51.05170 | -57.97943 | 34656 ft | 535 kts | 76° |
| 2026-05-07 23:11 | 51.07784 | -57.86813 | 34671 ft | 537 kts | 76° |
| 2026-05-07 23:12 | 51.10391 | -57.75660 | 34674 ft | 538 kts | 76° |
| 2026-05-07 23:12 | 51.12977 | -57.64540 | 34673 ft | 539 kts | 77° |
| 2026-05-07 23:13 | 51.15574 | -57.53314 | 34678 ft | 538 kts | 77° |
| 2026-05-07 23:13 | 51.18133 | -57.42198 | 34684 ft | 536 kts | 77° |
| 2026-05-07 23:14 | 51.20691 | -57.31025 | 34694 ft | 533 kts | 77° |
| 2026-05-07 23:14 | 51.23225 | -57.19898 | 34700 ft | 533 kts | 77° |
| 2026-05-07 23:15 | 51.25725 | -57.08856 | 34707 ft | 532 kts | 77° |
| 2026-05-07 23:15 | 51.28229 | -56.97738 | 34709 ft | 531 kts | 77° |
| 2026-05-07 23:16 | 51.30725 | -56.86599 | 34727 ft | 531 kts | 77° |
| 2026-05-07 23:16 | 51.33209 | -56.75454 | 34712 ft | 532 kts | 77° |
| 2026-05-07 23:17 | 51.35669 | -56.64358 | 34719 ft | 532 kts | 77° |
| 2026-05-07 23:17 | 51.38133 | -56.53186 | 34705 ft | 532 kts | 77° |
| 2026-05-07 23:18 | 51.40588 | -56.41995 | 34733 ft | 531 kts | 77° |
| 2026-05-07 23:18 | 51.43013 | -56.30879 | 34743 ft | 532 kts | 77° |
| 2026-05-07 23:19 | 51.45449 | -56.19653 | 34751 ft | 532 kts | 77° |
| 2026-05-07 23:19 | 51.47870 | -56.08434 | 34749 ft | 532 kts | 77° |
| 2026-05-07 23:20 | 51.50280 | -55.97205 | 34751 ft | 532 kts | 77° |
| 2026-05-07 23:20 | 51.52681 | -55.85957 | 34760 ft | 532 kts | 77° |
| 2026-05-07 23:21 | 51.55058 | -55.74760 | 34714 ft | 532 kts | 77° |
| 2026-05-07 23:21 | 51.57435 | -55.63499 | 34764 ft | 532 kts | 77° |
| 2026-05-07 23:22 | 51.59804 | -55.52211 | 34783 ft | 533 kts | 77° |
| 2026-05-07 23:22 | 51.62157 | -55.40934 | 34798 ft | 534 kts | 77° |
| 2026-05-07 23:23 | 51.64517 | -55.29565 | 34799 ft | 536 kts | 77° |
| 2026-05-07 23:23 | 51.66872 | -55.18156 | 34805 ft | 536 kts | 77° |
| 2026-05-07 23:24 | 51.69217 | -55.06727 | 34808 ft | 536 kts | 77° |
| 2026-05-07 23:24 | 51.71551 | -54.95289 | 34788 ft | 536 kts | 77° |
| 2026-05-07 23:25 | 51.73853 | -54.83939 | 34816 ft | 534 kts | 77° |
| 2026-05-07 23:25 | 51.76161 | -54.72494 | 34819 ft | 534 kts | 77° |
| 2026-05-07 23:26 | 51.78452 | -54.61069 | 34831 ft | 534 kts | 77° |
| 2026-05-07 23:26 | 51.80913 | -54.49794 | 34837 ft | 539 kts | 70° |
| 2026-05-07 23:27 | 51.85724 | -54.33340 | 34845 ft | 539 kts | 68° |
| 2026-05-07 23:27 | 51.88953 | -54.22366 | 34848 ft | 539 kts | 69° |
| 2026-05-07 23:28 | 51.92105 | -54.11450 | 34863 ft | 538 kts | 69° |
| 2026-05-07 23:28 | 51.95248 | -54.00435 | 34847 ft | 538 kts | 69° |
| 2026-05-07 23:29 | 51.98378 | -53.89416 | 34872 ft | 536 kts | 68° |
| 2026-05-07 23:29 | 52.01470 | -53.78488 | 34884 ft | 535 kts | 69° |
| 2026-05-07 23:30 | 52.04567 | -53.67497 | 34889 ft | 535 kts | 69° |
| 2026-05-07 23:30 | 52.07659 | -53.56471 | 34903 ft | 535 kts | 69° |
| 2026-05-07 23:31 | 52.10736 | -53.45450 | 34900 ft | 535 kts | 68° |
| 2026-05-07 23:31 | 52.13802 | -53.34413 | 34907 ft | 535 kts | 69° |
| 2026-05-07 23:32 | 52.16845 | -53.23409 | 34917 ft | 535 kts | 69° |
| 2026-05-07 23:32 | 52.19892 | -53.12336 | 34923 ft | 535 kts | 69° |
| 2026-05-07 23:33 | 52.22930 | -53.01243 | 34916 ft | 536 kts | 69° |
| 2026-05-07 23:33 | 52.25962 | -52.90119 | 34914 ft | 536 kts | 68° |
| 2026-05-07 23:34 | 52.28981 | -52.78989 | 34943 ft | 536 kts | 68° |
| 2026-05-07 23:34 | 52.31973 | -52.67907 | 34950 ft | 536 kts | 69° |
| 2026-05-07 23:35 | 52.34978 | -52.56720 | 34952 ft | 536 kts | 68° |
| 2026-05-07 23:35 | 52.37973 | -52.45520 | 34949 ft | 536 kts | 68° |
| 2026-05-07 23:36 | 52.40941 | -52.34364 | 34953 ft | 536 kts | 68° |
| 2026-05-07 23:36 | 52.43909 | -52.23153 | 34961 ft | 535 kts | 68° |
| 2026-05-07 23:37 | 52.46842 | -52.12019 | 34961 ft | 535 kts | 69° |
| 2026-05-07 23:37 | 52.49782 | -52.00802 | 34975 ft | 534 kts | 69° |
| 2026-05-07 23:38 | 52.52694 | -51.89642 | 34976 ft | 534 kts | 69° |
| 2026-05-07 23:38 | 52.55609 | -51.78411 | 34975 ft | 534 kts | 69° |
| 2026-05-07 23:39 | 52.58512 | -51.67173 | 34981 ft | 534 kts | 69° |
| 2026-05-07 23:39 | 52.61406 | -51.55910 | 34989 ft | 535 kts | 69° |
| 2026-05-07 23:40 | 52.64279 | -51.44676 | 35001 ft | 536 kts | 69° |
| 2026-05-07 23:40 | 52.67163 | -51.33340 | 34998 ft | 537 kts | 69° |
| 2026-05-07 23:41 | 52.69559 | -51.23878 | 35003 ft | 537 kts | 69° |
| 2026-05-07 23:41 | 52.72434 | -51.12472 | 35006 ft | 538 kts | 69° |
| 2026-05-07 23:42 | 52.75297 | -51.01056 | 35018 ft | 538 kts | 69° |
| 2026-05-07 23:42 | 52.78131 | -50.89697 | 35015 ft | 538 kts | 69° |
| 2026-05-07 23:43 | 52.80971 | -50.78254 | 35025 ft | 538 kts | 69° |
| 2026-05-07 23:43 | 52.83802 | -50.66787 | 35036 ft | 537 kts | 68° |
| 2026-05-07 23:44 | 52.86602 | -50.55391 | 35040 ft | 536 kts | 68° |
| 2026-05-07 23:44 | 52.89398 | -50.43943 | 35049 ft | 536 kts | 68° |
| 2026-05-07 23:45 | 52.92184 | -50.32482 | 35046 ft | 535 kts | 68° |
| 2026-05-07 23:45 | 52.94956 | -50.21019 | 35059 ft | 535 kts | 69° |
| 2026-05-07 23:46 | 52.97701 | -50.09610 | 35060 ft | 535 kts | 69° |
| 2026-05-07 23:46 | 53.00454 | -49.98124 | 35068 ft | 535 kts | 68° |
| 2026-05-07 23:47 | 53.03306 | -49.86674 | 35070 ft | 536 kts | 67° |
| 2026-05-07 23:47 | 53.06189 | -49.75309 | 35072 ft | 537 kts | 67° |
| 2026-05-07 23:48 | 53.09071 | -49.63851 | 35082 ft | 537 kts | 68° |
| 2026-05-07 23:48 | 53.11927 | -49.52360 | 35069 ft | 536 kts | 67° |
| 2026-05-07 23:49 | 53.14744 | -49.40945 | 35077 ft | 535 kts | 67° |
| 2026-05-07 23:49 | 53.17567 | -49.29445 | 35095 ft | 535 kts | 67° |
| 2026-05-07 23:50 | 53.20373 | -49.17953 | 35104 ft | 534 kts | 67° |
| 2026-05-07 23:50 | 53.23154 | -49.06515 | 35104 ft | 533 kts | 67° |
| 2026-05-07 23:51 | 53.25931 | -48.95027 | 35099 ft | 532 kts | 67° |
| 2026-05-07 23:51 | 53.28696 | -48.83534 | 35115 ft | 531 kts | 67° |
| 2026-05-07 23:52 | 53.31423 | -48.72134 | 35130 ft | 531 kts | 67° |
| 2026-05-07 23:52 | 53.34156 | -48.60650 | 35124 ft | 531 kts | 67° |
| 2026-05-07 23:53 | 53.36875 | -48.49164 | 35126 ft | 531 kts | 67° |
| 2026-05-07 23:53 | 53.39586 | -48.37650 | 35111 ft | 531 kts | 68° |
| 2026-05-07 23:54 | 53.42289 | -48.26106 | 35137 ft | 531 kts | 68° |
| 2026-05-07 23:54 | 53.44965 | -48.14620 | 35141 ft | 533 kts | 69° |
| 2026-05-07 23:55 | 53.47658 | -48.03000 | 35150 ft | 534 kts | 69° |
| 2026-05-07 23:55 | 53.50347 | -47.91330 | 35151 ft | 535 kts | 69° |
| 2026-05-07 23:56 | 53.53023 | -47.79651 | 35158 ft | 536 kts | 69° |
| 2026-05-07 23:56 | 53.55676 | -47.68008 | 35163 ft | 536 kts | 69° |
| 2026-05-07 23:57 | 53.58337 | -47.56268 | 35165 ft | 536 kts | 69° |
| 2026-05-07 23:57 | 53.60982 | -47.44532 | 35166 ft | 535 kts | 69° |
| 2026-05-07 23:58 | 53.63616 | -47.32778 | 35173 ft | 535 kts | 70° |
| 2026-05-07 23:58 | 53.66214 | -47.21121 | 35174 ft | 534 kts | 70° |
| 2026-05-07 23:59 | 53.68816 | -47.09377 | 35177 ft | 533 kts | 70° |
| 2026-05-07 23:59 | 53.71399 | -46.97657 | 35174 ft | 532 kts | 70° |
| 2026-05-08 00:00 | 53.73970 | -46.85917 | 35184 ft | 531 kts | 70° |
| 2026-05-08 00:00 | 53.76506 | -46.74278 | 35186 ft | 531 kts | 70° |
| 2026-05-08 00:01 | 53.79044 | -46.62565 | 35183 ft | 530 kts | 70° |
| 2026-05-08 00:01 | 53.81571 | -46.50835 | 35182 ft | 530 kts | 70° |
| 2026-05-08 00:02 | 53.84086 | -46.39093 | 35187 ft | 529 kts | 70° |
| 2026-05-08 00:02 | 53.86573 | -46.27411 | 35190 ft | 529 kts | 70° |
| 2026-05-08 00:03 | 53.89061 | -46.15657 | 35197 ft | 529 kts | 70° |
| 2026-05-08 00:03 | 53.91541 | -46.03876 | 35189 ft | 529 kts | 70° |
| 2026-05-08 00:04 | 53.94004 | -45.92106 | 35183 ft | 529 kts | 70° |
| 2026-05-08 00:04 | 53.96438 | -45.80406 | 35186 ft | 528 kts | 70° |
| 2026-05-08 00:05 | 53.98879 | -45.68604 | 35192 ft | 528 kts | 70° |
| 2026-05-08 00:05 | 54.01303 | -45.56811 | 35202 ft | 528 kts | 70° |
| 2026-05-08 00:06 | 54.03719 | -45.44994 | 35196 ft | 528 kts | 70° |
| 2026-05-08 00:06 | 54.06100 | -45.33271 | 35200 ft | 527 kts | 70° |
| 2026-05-08 00:07 | 54.08489 | -45.21441 | 35200 ft | 527 kts | 70° |
| 2026-05-08 00:07 | 54.10861 | -45.09628 | 35207 ft | 526 kts | 70° |
| 2026-05-08 00:08 | 54.13206 | -44.97872 | 35207 ft | 526 kts | 70° |
| 2026-05-08 00:08 | 54.15554 | -44.86036 | 35208 ft | 526 kts | 70° |
| 2026-05-08 00:09 | 54.17884 | -44.74215 | 35210 ft | 525 kts | 70° |
| 2026-05-08 00:09 | 54.20205 | -44.62372 | 35225 ft | 525 kts | 70° |
| 2026-05-08 00:10 | 54.22497 | -44.50595 | 35204 ft | 525 kts | 70° |
| 2026-05-08 00:10 | 54.24796 | -44.38725 | 35216 ft | 525 kts | 70° |
| 2026-05-08 00:11 | 54.27082 | -44.26840 | 35215 ft | 526 kts | 70° |
| 2026-05-08 00:11 | 54.29358 | -44.14933 | 35221 ft | 526 kts | 70° |
| 2026-05-08 00:12 | 54.31608 | -44.03087 | 35228 ft | 526 kts | 70° |
| 2026-05-08 00:12 | 54.33864 | -43.91138 | 35223 ft | 526 kts | 70° |
| 2026-05-08 00:13 | 54.36109 | -43.79169 | 35226 ft | 526 kts | 70° |
| 2026-05-08 00:13 | 54.38322 | -43.67293 | 35228 ft | 525 kts | 71° |
| 2026-05-08 00:14 | 54.40534 | -43.55347 | 35241 ft | 525 kts | 70° |
| 2026-05-08 00:14 | 54.42736 | -43.43383 | 35229 ft | 525 kts | 71° |
| 2026-05-08 00:15 | 54.44923 | -43.31421 | 35237 ft | 524 kts | 71° |
| 2026-05-08 00:15 | 54.47097 | -43.19451 | 35234 ft | 524 kts | 70° |
| 2026-05-08 00:16 | 54.49242 | -43.07567 | 35244 ft | 524 kts | 71° |
| 2026-05-08 00:16 | 54.51390 | -42.95582 | 35248 ft | 524 kts | 70° |
| 2026-05-08 00:17 | 54.53531 | -42.83564 | 35249 ft | 524 kts | 70° |
| 2026-05-08 00:17 | 54.55657 | -42.71553 | 35255 ft | 524 kts | 70° |
| 2026-05-08 00:18 | 54.57771 | -42.59523 | 35241 ft | 524 kts | 71° |
| 2026-05-08 00:18 | 54.59861 | -42.47552 | 35269 ft | 524 kts | 70° |
| 2026-05-08 00:19 | 54.61951 | -42.35500 | 35250 ft | 524 kts | 70° |
| 2026-05-08 00:19 | 54.64031 | -42.23430 | 35261 ft | 524 kts | 70° |
| 2026-05-08 00:20 | 54.66095 | -42.11364 | 35263 ft | 523 kts | 70° |
| 2026-05-08 00:20 | 54.68148 | -41.99285 | 35262 ft | 523 kts | 71° |
| 2026-05-08 00:21 | 54.70184 | -41.87216 | 35267 ft | 523 kts | 70° |
| 2026-05-08 00:21 | 54.72199 | -41.75195 | 35269 ft | 523 kts | 70° |
| 2026-05-08 00:22 | 54.74212 | -41.63098 | 35272 ft | 522 kts | 71° |
| 2026-05-08 00:22 | 54.76215 | -41.50979 | 35277 ft | 522 kts | 71° |
| 2026-05-08 00:23 | 54.78205 | -41.38855 | 35290 ft | 522 kts | 70° |
| 2026-05-08 00:23 | 54.80169 | -41.26800 | 35277 ft | 522 kts | 70° |
| 2026-05-08 00:24 | 54.82133 | -41.14666 | 35288 ft | 522 kts | 70° |
| 2026-05-08 00:24 | 54.84085 | -41.02515 | 35293 ft | 521 kts | 71° |
| 2026-05-08 00:25 | 54.86021 | -40.90376 | 35297 ft | 521 kts | 71° |
| 2026-05-08 00:25 | 54.87930 | -40.78324 | 35316 ft | 521 kts | 70° |
| 2026-05-08 00:26 | 54.89841 | -40.66166 | 35309 ft | 520 kts | 70° |
| 2026-05-08 00:26 | 54.91734 | -40.54038 | 35300 ft | 519 kts | 70° |
| 2026-05-08 00:27 | 54.93612 | -40.41914 | 35317 ft | 518 kts | 70° |
| 2026-05-08 00:27 | 54.95462 | -40.29890 | 35317 ft | 518 kts | 70° |
| 2026-05-08 00:28 | 54.97312 | -40.17768 | 35329 ft | 517 kts | 70° |
| 2026-05-08 00:28 | 54.98839 | -40.07707 | 35321 ft | 516 kts | 70° |
| 2026-05-08 00:29 | 55.00942 | -39.93634 | 35327 ft | 515 kts | 71° |
| 2026-05-08 00:29 | 55.02395 | -39.83471 | 35329 ft | 515 kts | 71° |
| 2026-05-08 00:30 | 55.04092 | -39.71419 | 35336 ft | 515 kts | 71° |
| 2026-05-08 00:30 | 55.05796 | -39.59273 | 35346 ft | 515 kts | 71° |
| 2026-05-08 00:31 | 55.07495 | -39.47119 | 35343 ft | 515 kts | 71° |
| 2026-05-08 00:31 | 55.09184 | -39.34955 | 35353 ft | 514 kts | 71° |
| 2026-05-08 00:32 | 55.10848 | -39.22874 | 35353 ft | 514 kts | 71° |
| 2026-05-08 00:32 | 55.12509 | -39.10712 | 35379 ft | 514 kts | 71° |
| 2026-05-08 00:33 | 55.14157 | -38.98544 | 35363 ft | 514 kts | 71° |
| 2026-05-08 00:33 | 55.15792 | -38.86373 | 35364 ft | 514 kts | 71° |
| 2026-05-08 00:34 | 55.17405 | -38.74262 | 35369 ft | 513 kts | 71° |
| 2026-05-08 00:34 | 55.19014 | -38.62086 | 35370 ft | 513 kts | 71° |
| 2026-05-08 00:35 | 55.20613 | -38.49887 | 35383 ft | 514 kts | 71° |
| 2026-05-08 00:35 | 55.22200 | -38.37676 | 35373 ft | 513 kts | 71° |
| 2026-05-08 00:36 | 55.23762 | -38.25546 | 35385 ft | 513 kts | 71° |
| 2026-05-08 00:36 | 55.25324 | -38.13321 | 35379 ft | 513 kts | 71° |
| 2026-05-08 00:37 | 55.26864 | -38.01158 | 35376 ft | 513 kts | 71° |
| 2026-05-08 00:38 | 55.29163 | -37.82812 | 35393 ft | 513 kts | 71° |
| 2026-05-08 00:38 | 55.30680 | -37.70563 | 35389 ft | 513 kts | 71° |
| 2026-05-08 00:39 | 55.32188 | -37.58281 | 35388 ft | 513 kts | 71° |
| 2026-05-08 00:39 | 55.33671 | -37.46097 | 35391 ft | 512 kts | 71° |
| 2026-05-08 00:40 | 55.35150 | -37.33839 | 35404 ft | 513 kts | 71° |
| 2026-05-08 00:40 | 55.36616 | -37.21573 | 35397 ft | 512 kts | 71° |
| 2026-05-08 00:41 | 55.38070 | -37.09291 | 35392 ft | 512 kts | 71° |
| 2026-05-08 00:41 | 55.39498 | -36.97126 | 35402 ft | 511 kts | 71° |
| 2026-05-08 00:42 | 55.40925 | -36.84859 | 35399 ft | 511 kts | 71° |
| 2026-05-08 00:42 | 55.42338 | -36.72592 | 35397 ft | 510 kts | 72° |
| 2026-05-08 00:43 | 55.43734 | -36.60353 | 35397 ft | 509 kts | 72° |
| 2026-05-08 00:43 | 55.45106 | -36.48215 | 35403 ft | 507 kts | 72° |
| 2026-05-08 00:44 | 55.46473 | -36.36003 | 35402 ft | 506 kts | 72° |
| 2026-05-08 00:44 | 55.47825 | -36.23820 | 35405 ft | 506 kts | 72° |
| 2026-05-08 00:45 | 55.49154 | -36.11727 | 35412 ft | 506 kts | 72° |
| 2026-05-08 00:45 | 55.50483 | -35.99513 | 35407 ft | 506 kts | 72° |
| 2026-05-08 00:46 | 55.51800 | -35.87290 | 35407 ft | 507 kts | 72° |
| 2026-05-08 00:46 | 55.53099 | -35.75112 | 35413 ft | 507 kts | 72° |
| 2026-05-08 00:47 | 55.54395 | -35.62839 | 35448 ft | 508 kts | 73° |
| 2026-05-08 00:47 | 55.55678 | -35.50554 | 35419 ft | 507 kts | 73° |
| 2026-05-08 00:48 | 55.56936 | -35.38380 | 35405 ft | 505 kts | 73° |
| 2026-05-08 00:48 | 55.58188 | -35.26148 | 35409 ft | 504 kts | 73° |
| 2026-05-08 00:49 | 55.59417 | -35.14020 | 35425 ft | 503 kts | 73° |
| 2026-05-08 00:49 | 55.60641 | -35.01819 | 35443 ft | 503 kts | 73° |
| 2026-05-08 00:50 | 55.61849 | -34.89647 | 35420 ft | 502 kts | 73° |
| 2026-05-08 00:50 | 55.63039 | -34.77526 | 35416 ft | 501 kts | 73° |
| 2026-05-08 00:51 | 55.64222 | -34.65345 | 35421 ft | 501 kts | 73° |
| 2026-05-08 00:51 | 55.65390 | -34.53188 | 35420 ft | 501 kts | 73° |
| 2026-05-08 00:52 | 55.66549 | -34.40999 | 35440 ft | 502 kts | 73° |
| 2026-05-08 00:52 | 55.67689 | -34.28871 | 35431 ft | 501 kts | 73° |
| 2026-05-08 00:53 | 55.68821 | -34.16685 | 35426 ft | 501 kts | 74° |
| 2026-05-08 00:53 | 55.69940 | -34.04510 | 35424 ft | 500 kts | 74° |
| 2026-05-08 00:54 | 55.71041 | -33.92389 | 35424 ft | 500 kts | 74° |
| 2026-05-08 00:54 | 55.72135 | -33.80215 | 35435 ft | 499 kts | 74° |
| 2026-05-08 00:55 | 55.73215 | -33.68044 | 35436 ft | 497 kts | 74° |
| 2026-05-08 00:55 | 55.74273 | -33.55969 | 35423 ft | 494 kts | 74° |
| 2026-05-08 00:56 | 55.75319 | -33.43911 | 35423 ft | 492 kts | 74° |
| 2026-05-08 00:56 | 55.76344 | -33.31965 | 35425 ft | 491 kts | 74° |
| 2026-05-08 00:57 | 55.77361 | -33.19971 | 35438 ft | 491 kts | 75° |
| 2026-05-08 00:57 | 55.78364 | -33.07977 | 35428 ft | 489 kts | 75° |
| 2026-05-08 00:58 | 55.79345 | -32.96108 | 35420 ft | 488 kts | 75° |
| 2026-05-08 00:58 | 55.80319 | -32.84179 | 35415 ft | 487 kts | 75° |
| 2026-05-08 00:59 | 55.81281 | -32.72258 | 35424 ft | 486 kts | 75° |
| 2026-05-08 00:59 | 55.82232 | -32.60328 | 35434 ft | 487 kts | 75° |
| 2026-05-08 01:00 | 55.83168 | -32.48411 | 35422 ft | 485 kts | 75° |
| 2026-05-08 01:00 | 55.84085 | -32.36599 | 35419 ft | 483 kts | 75° |
| 2026-05-08 01:01 | 55.84994 | -32.24748 | 35425 ft | 483 kts | 75° |
| 2026-05-08 01:01 | 55.85892 | -32.12884 | 35414 ft | 483 kts | 75° |
| 2026-05-08 01:02 | 55.86771 | -32.01103 | 35440 ft | 483 kts | 74° |
| 2026-05-08 01:02 | 55.87644 | -31.89241 | 35419 ft | 482 kts | 74° |
| 2026-05-08 01:03 | 55.88504 | -31.77409 | 35413 ft | 481 kts | 74° |
| 2026-05-08 01:03 | 55.89351 | -31.65585 | 35412 ft | 480 kts | 75° |
| 2026-05-08 01:04 | 55.90187 | -31.53764 | 35409 ft | 480 kts | 75° |
| 2026-05-08 01:04 | 55.91007 | -31.42010 | 35447 ft | 480 kts | 74° |
| 2026-05-08 01:05 | 55.91821 | -31.30181 | 35419 ft | 480 kts | 74° |
| 2026-05-08 01:05 | 55.92620 | -31.18361 | 35410 ft | 479 kts | 74° |
| 2026-05-08 01:06 | 55.93403 | -31.06633 | 35401 ft | 479 kts | 74° |
| 2026-05-08 01:06 | 55.94179 | -30.94835 | 35401 ft | 478 kts | 74° |
| 2026-05-08 01:07 | 55.94945 | -30.83024 | 35455 ft | 479 kts | 74° |
| 2026-05-08 01:07 | 55.95701 | -30.71194 | 35409 ft | 480 kts | 74° |
| 2026-05-08 01:08 | 55.96444 | -30.59352 | 35385 ft | 479 kts | 74° |
| 2026-05-08 01:08 | 55.97169 | -30.47617 | 35387 ft | 478 kts | 74° |
| 2026-05-08 01:09 | 55.97889 | -30.35801 | 35380 ft | 478 kts | 74° |
| 2026-05-08 01:09 | 55.98597 | -30.23984 | 35391 ft | 477 kts | 75° |
| 2026-05-08 01:10 | 55.99290 | -30.12251 | 35389 ft | 477 kts | 75° |
| 2026-05-08 01:10 | 55.99977 | -30.00433 | 35385 ft | 478 kts | 75° |
| 2026-05-08 01:11 | 56.00528 | -29.88556 | 35383 ft | 481 kts | 77° |
| 2026-05-08 01:11 | 56.00961 | -29.76610 | 35380 ft | 481 kts | 77° |
| 2026-05-08 01:12 | 56.01387 | -29.64661 | 35419 ft | 481 kts | 77° |
| 2026-05-08 01:12 | 56.01820 | -29.52762 | 35390 ft | 483 kts | 77° |
| 2026-05-08 01:13 | 56.02255 | -29.40770 | 35380 ft | 484 kts | 77° |
| 2026-05-08 01:13 | 56.02681 | -29.28723 | 35375 ft | 485 kts | 77° |
| 2026-05-08 01:14 | 56.03092 | -29.16742 | 35373 ft | 486 kts | 77° |
| 2026-05-08 01:14 | 56.03493 | -29.04670 | 35370 ft | 486 kts | 78° |
| 2026-05-08 01:15 | 56.03885 | -28.92571 | 35373 ft | 488 kts | 78° |
| 2026-05-08 01:15 | 56.04266 | -28.80414 | 35369 ft | 489 kts | 78° |
| 2026-05-08 01:16 | 56.04631 | -28.68331 | 35364 ft | 489 kts | 78° |
| 2026-05-08 01:16 | 56.04987 | -28.56176 | 35358 ft | 489 kts | 79° |
| 2026-05-08 01:17 | 56.05330 | -28.44081 | 35359 ft | 488 kts | 79° |
| 2026-05-08 01:17 | 56.05662 | -28.31940 | 35358 ft | 489 kts | 79° |
| 2026-05-08 01:18 | 56.05983 | -28.19771 | 35349 ft | 489 kts | 79° |
| 2026-05-08 01:18 | 56.06240 | -28.09644 | 35356 ft | 489 kts | 80° |
| 2026-05-08 01:19 | 56.06541 | -27.97444 | 35351 ft | 490 kts | 80° |
| 2026-05-08 01:19 | 56.06829 | -27.85233 | 35344 ft | 491 kts | 80° |
| 2026-05-08 01:20 | 56.07105 | -27.73006 | 35382 ft | 492 kts | 81° |
| 2026-05-08 01:20 | 56.07369 | -27.60806 | 35347 ft | 493 kts | 81° |
| 2026-05-08 01:21 | 56.07621 | -27.48513 | 35344 ft | 493 kts | 81° |
| 2026-05-08 01:21 | 56.07860 | -27.36317 | 35337 ft | 493 kts | 81° |
| 2026-05-08 01:22 | 56.08088 | -27.24035 | 35336 ft | 493 kts | 81° |
| 2026-05-08 01:22 | 56.08304 | -27.11776 | 35368 ft | 492 kts | 82° |
| 2026-05-08 01:23 | 56.08509 | -26.99497 | 35337 ft | 493 kts | 82° |
| 2026-05-08 01:23 | 56.08700 | -26.87219 | 35327 ft | 493 kts | 82° |
| 2026-05-08 01:24 | 56.08879 | -26.75027 | 35331 ft | 493 kts | 83° |
| 2026-05-08 01:24 | 56.09047 | -26.62730 | 35320 ft | 493 kts | 83° |
| 2026-05-08 01:25 | 56.09203 | -26.50431 | 35359 ft | 494 kts | 83° |
| 2026-05-08 01:25 | 56.09347 | -26.38102 | 35320 ft | 495 kts | 83° |
| 2026-05-08 01:26 | 56.09477 | -26.25848 | 35313 ft | 495 kts | 83° |
| 2026-05-08 01:26 | 56.09596 | -26.13504 | 35316 ft | 495 kts | 83° |
| 2026-05-08 01:27 | 56.09703 | -26.01162 | 35314 ft | 495 kts | 83° |
| 2026-05-08 01:27 | 56.09798 | -25.88883 | 35312 ft | 495 kts | 84° |
| 2026-05-08 01:28 | 56.09880 | -25.76532 | 35309 ft | 496 kts | 84° |
| 2026-05-08 01:28 | 56.09951 | -25.64152 | 35307 ft | 496 kts | 84° |
| 2026-05-08 01:29 | 56.10008 | -25.51784 | 35298 ft | 496 kts | 84° |
| 2026-05-08 01:29 | 56.10054 | -25.39528 | 35298 ft | 495 kts | 84° |
| 2026-05-08 01:30 | 56.10087 | -25.27162 | 35294 ft | 495 kts | 84° |
| 2026-05-08 01:30 | 56.10108 | -25.14808 | 35304 ft | 496 kts | 85° |
| 2026-05-08 01:31 | 56.10117 | -25.02434 | 35291 ft | 496 kts | 85° |
| 2026-05-08 01:31 | 56.10113 | -24.90142 | 35293 ft | 496 kts | 85° |
| 2026-05-08 01:32 | 56.10097 | -24.77787 | 35287 ft | 496 kts | 85° |
| 2026-05-08 01:32 | 56.10068 | -24.65426 | 35285 ft | 496 kts | 85° |
| 2026-05-08 01:33 | 56.10028 | -24.53050 | 35281 ft | 496 kts | 86° |
| 2026-05-08 01:33 | 56.09975 | -24.40734 | 35281 ft | 496 kts | 86° |
| 2026-05-08 01:34 | 56.09909 | -24.28351 | 35273 ft | 496 kts | 86° |
| 2026-05-08 01:34 | 56.09832 | -24.15930 | 35488 ft | 499 kts | 86° |
| 2026-05-08 01:34 | 56.09789 | -24.09793 | 35792 ft | 498 kts | 86° |
| 2026-05-08 01:35 | 56.09741 | -24.03588 | 36084 ft | 498 kts | 87° |
| 2026-05-08 01:35 | 56.09691 | -23.97394 | 36377 ft | 497 kts | 87° |
| 2026-05-08 01:35 | 56.09638 | -23.91193 | 36648 ft | 497 kts | 87° |
| 2026-05-08 01:35 | 56.09582 | -23.85001 | 36882 ft | 497 kts | 87° |
| 2026-05-08 01:36 | 56.09523 | -23.78780 | 37107 ft | 498 kts | 87° |
| 2026-05-08 01:36 | 56.09396 | -23.66322 | 37239 ft | 501 kts | 87° |
| 2026-05-08 01:37 | 56.09255 | -23.53945 | 37256 ft | 499 kts | 87° |
| 2026-05-08 01:37 | 56.09101 | -23.41537 | 37257 ft | 496 kts | 87° |
| 2026-05-08 01:38 | 56.08937 | -23.29182 | 37261 ft | 496 kts | 88° |
| 2026-05-08 01:38 | 56.08762 | -23.16907 | 37260 ft | 495 kts | 88° |
| 2026-05-08 01:39 | 56.08573 | -23.04544 | 37251 ft | 496 kts | 88° |
| 2026-05-08 01:39 | 56.08371 | -22.92179 | 37252 ft | 497 kts | 88° |
| 2026-05-08 01:40 | 56.08159 | -22.79872 | 37245 ft | 498 kts | 88° |
| 2026-05-08 01:40 | 56.07932 | -22.67463 | 37249 ft | 499 kts | 89° |
| 2026-05-08 01:41 | 56.07691 | -22.55006 | 37252 ft | 500 kts | 89° |
| 2026-05-08 01:41 | 56.07438 | -22.42535 | 37242 ft | 501 kts | 89° |
| 2026-05-08 01:42 | 56.07173 | -22.30131 | 37243 ft | 502 kts | 89° |
| 2026-05-08 01:42 | 56.06894 | -22.17640 | 37244 ft | 502 kts | 89° |
| 2026-05-08 01:43 | 56.06602 | -22.05141 | 37242 ft | 502 kts | 90° |
| 2026-05-08 01:43 | 56.06298 | -21.92656 | 37233 ft | 502 kts | 90° |
| 2026-05-08 01:44 | 56.05981 | -21.80172 | 37230 ft | 501 kts | 90° |
| 2026-05-08 01:44 | 56.05654 | -21.67791 | 37231 ft | 501 kts | 90° |
| 2026-05-08 01:45 | 56.05313 | -21.55327 | 37232 ft | 500 kts | 90° |
| 2026-05-08 01:45 | 56.04960 | -21.42884 | 37230 ft | 500 kts | 91° |
| 2026-05-08 01:46 | 56.04595 | -21.30508 | 37222 ft | 501 kts | 91° |
| 2026-05-08 01:46 | 56.04217 | -21.18063 | 37224 ft | 501 kts | 91° |
| 2026-05-08 01:47 | 56.03825 | -21.05587 | 37219 ft | 501 kts | 91° |
| 2026-05-08 01:47 | 56.03423 | -20.93202 | 37217 ft | 501 kts | 91° |
| 2026-05-08 01:48 | 56.02792 | -20.74480 | 37217 ft | 502 kts | 92° |
| 2026-05-08 01:48 | 56.02357 | -20.62065 | 37212 ft | 502 kts | 92° |
| 2026-05-08 01:49 | 56.01909 | -20.49599 | 37210 ft | 502 kts | 92° |
| 2026-05-08 01:49 | 56.01447 | -20.37112 | 37209 ft | 503 kts | 92° |
| 2026-05-08 01:50 | 56.00973 | -20.24646 | 37204 ft | 502 kts | 92° |
| 2026-05-08 01:50 | 56.00488 | -20.12174 | 37197 ft | 503 kts | 93° |
| 2026-05-08 01:51 | 55.99782 | -19.99798 | 37202 ft | 504 kts | 99° |
| 2026-05-08 01:51 | 55.97940 | -19.87667 | 37204 ft | 505 kts | 107° |
| 2026-05-08 01:52 | 55.95756 | -19.75710 | 37187 ft | 506 kts | 108° |
| 2026-05-08 01:52 | 55.93592 | -19.63807 | 37195 ft | 507 kts | 107° |
| 2026-05-08 01:53 | 55.91435 | -19.51817 | 37179 ft | 507 kts | 108° |
| 2026-05-08 01:53 | 55.89290 | -19.39902 | 37185 ft | 506 kts | 108° |
| 2026-05-08 01:54 | 55.87128 | -19.27964 | 37173 ft | 506 kts | 108° |
| 2026-05-08 01:54 | 55.84954 | -19.16047 | 37171 ft | 505 kts | 108° |
| 2026-05-08 01:55 | 55.82768 | -19.04150 | 37174 ft | 505 kts | 108° |
| 2026-05-08 01:55 | 55.80587 | -18.92361 | 37167 ft | 504 kts | 108° |
| 2026-05-08 01:56 | 55.78381 | -18.80501 | 37177 ft | 505 kts | 109° |
| 2026-05-08 01:56 | 55.76163 | -18.68656 | 37162 ft | 505 kts | 109° |
| 2026-05-08 01:57 | 55.73947 | -18.56899 | 37172 ft | 505 kts | 109° |
| 2026-05-08 01:57 | 55.71706 | -18.45076 | 37139 ft | 505 kts | 109° |
| 2026-05-08 01:58 | 55.69451 | -18.33257 | 37157 ft | 505 kts | 109° |
| 2026-05-08 01:58 | 55.67186 | -18.21458 | 37160 ft | 505 kts | 109° |
| 2026-05-08 01:59 | 55.64923 | -18.09741 | 37152 ft | 506 kts | 110° |
| 2026-05-08 01:59 | 55.62633 | -17.97952 | 37154 ft | 506 kts | 110° |
| 2026-05-08 02:00 | 55.60331 | -17.86178 | 37147 ft | 506 kts | 110° |
| 2026-05-08 02:00 | 55.58019 | -17.74423 | 37151 ft | 506 kts | 110° |
| 2026-05-08 02:01 | 55.55710 | -17.62757 | 37131 ft | 505 kts | 110° |
| 2026-05-08 02:01 | 55.53381 | -17.51053 | 37144 ft | 505 kts | 110° |
| 2026-05-08 02:02 | 55.51037 | -17.39351 | 37136 ft | 505 kts | 110° |
| 2026-05-08 02:02 | 55.48684 | -17.27669 | 37137 ft | 505 kts | 111° |
| 2026-05-08 02:03 | 55.46336 | -17.16079 | 37130 ft | 505 kts | 111° |
| 2026-05-08 02:03 | 55.43961 | -17.04428 | 37136 ft | 505 kts | 111° |
| 2026-05-08 02:04 | 55.41574 | -16.92787 | 37129 ft | 505 kts | 111° |
| 2026-05-08 02:04 | 55.39192 | -16.81231 | 37119 ft | 505 kts | 111° |
| 2026-05-08 02:05 | 55.36784 | -16.69625 | 37127 ft | 504 kts | 111° |
| 2026-05-08 02:05 | 55.34363 | -16.58017 | 37120 ft | 505 kts | 111° |
| 2026-05-08 02:06 | 55.31937 | -16.46454 | 37121 ft | 505 kts | 112° |
| 2026-05-08 02:06 | 55.29495 | -16.34883 | 37117 ft | 505 kts | 112° |
| 2026-05-08 02:07 | 55.27061 | -16.23413 | 37115 ft | 505 kts | 112° |
| 2026-05-08 02:07 | 55.24598 | -16.11870 | 37117 ft | 505 kts | 112° |
| 2026-05-08 02:08 | 55.22123 | -16.00335 | 37099 ft | 505 kts | 112° |
| 2026-05-08 02:08 | 55.20060 | -15.90775 | 37106 ft | 505 kts | 112° |
| 2026-05-08 02:09 | 55.17157 | -15.77392 | 37105 ft | 505 kts | 113° |
| 2026-05-08 02:09 | 55.15071 | -15.67830 | 37104 ft | 505 kts | 113° |
| 2026-05-08 02:10 | 55.12551 | -15.56335 | 37104 ft | 505 kts | 113° |
| 2026-05-08 02:10 | 55.10040 | -15.44944 | 37092 ft | 505 kts | 113° |
| 2026-05-08 02:11 | 55.07500 | -15.33483 | 37096 ft | 505 kts | 113° |
| 2026-05-08 02:11 | 55.04953 | -15.22050 | 37093 ft | 506 kts | 114° |
| 2026-05-08 02:12 | 55.02394 | -15.10623 | 37091 ft | 506 kts | 114° |
| 2026-05-08 02:12 | 55.00470 | -14.98797 | 37086 ft | 509 kts | 101° |
| 2026-05-08 02:13 | 54.99903 | -14.86568 | 37087 ft | 511 kts | 91° |
| 2026-05-08 02:13 | 54.99999 | -14.74153 | 37081 ft | 512 kts | 90° |
| 2026-05-08 02:14 | 55.00080 | -14.61740 | 37080 ft | 512 kts | 91° |
| 2026-05-08 02:14 | 55.00099 | -14.49406 | 37075 ft | 512 kts | 91° |
| 2026-05-08 02:15 | 55.00090 | -14.36977 | 37074 ft | 513 kts | 91° |
| 2026-05-08 02:15 | 55.00071 | -14.24550 | 37079 ft | 513 kts | 92° |
| 2026-05-08 02:16 | 55.00043 | -14.12128 | 37080 ft | 513 kts | 92° |
| 2026-05-08 02:16 | 54.99854 | -13.99704 | 37072 ft | 512 kts | 97° |
| 2026-05-08 02:17 | 54.98607 | -13.87546 | 37052 ft | 509 kts | 105° |
| 2026-05-08 02:17 | 54.97076 | -13.75517 | 37059 ft | 509 kts | 105° |
| 2026-05-08 02:18 | 54.95570 | -13.63556 | 37075 ft | 509 kts | 105° |
| 2026-05-08 02:18 | 54.94072 | -13.51483 | 37067 ft | 510 kts | 104° |
| 2026-05-08 02:19 | 54.92573 | -13.39416 | 37054 ft | 511 kts | 105° |
| 2026-05-08 02:19 | 54.91060 | -13.27340 | 37055 ft | 511 kts | 105° |
| 2026-05-08 02:20 | 54.89542 | -13.15347 | 37055 ft | 511 kts | 105° |
| 2026-05-08 02:20 | 54.88001 | -13.03290 | 37057 ft | 511 kts | 105° |
| 2026-05-08 02:21 | 54.86447 | -12.91234 | 37050 ft | 511 kts | 105° |
| 2026-05-08 02:21 | 54.84895 | -12.79283 | 37044 ft | 510 kts | 105° |
| 2026-05-08 02:22 | 54.83320 | -12.67268 | 37041 ft | 510 kts | 105° |
| 2026-05-08 02:22 | 54.81736 | -12.55272 | 37041 ft | 510 kts | 106° |
| 2026-05-08 02:23 | 54.80137 | -12.43276 | 37045 ft | 510 kts | 106° |
| 2026-05-08 02:23 | 54.78538 | -12.31363 | 37047 ft | 510 kts | 106° |
| 2026-05-08 02:24 | 54.76913 | -12.19362 | 37044 ft | 511 kts | 106° |
| 2026-05-08 02:24 | 54.75279 | -12.07387 | 37047 ft | 511 kts | 106° |
| 2026-05-08 02:25 | 54.73629 | -11.95396 | 37033 ft | 511 kts | 106° |
| 2026-05-08 02:25 | 54.71979 | -11.83494 | 37039 ft | 512 kts | 107° |
| 2026-05-08 02:26 | 54.70302 | -11.71501 | 37039 ft | 512 kts | 107° |
| 2026-05-08 02:26 | 54.68614 | -11.59518 | 37033 ft | 512 kts | 107° |
| 2026-05-08 02:27 | 54.66928 | -11.47636 | 37037 ft | 512 kts | 107° |
| 2026-05-08 02:27 | 54.65214 | -11.35656 | 37037 ft | 513 kts | 107° |
| 2026-05-08 02:28 | 54.63490 | -11.23699 | 37036 ft | 513 kts | 107° |
| 2026-05-08 02:28 | 54.61752 | -11.11735 | 37035 ft | 513 kts | 107° |
| 2026-05-08 02:29 | 54.60015 | -10.99868 | 37035 ft | 513 kts | 107° |
| 2026-05-08 02:29 | 54.58255 | -10.87937 | 37035 ft | 513 kts | 107° |
| 2026-05-08 02:30 | 54.56482 | -10.76006 | 37024 ft | 512 kts | 108° |
| 2026-05-08 02:30 | 54.54713 | -10.64185 | 37032 ft | 512 kts | 108° |
| 2026-05-08 02:31 | 54.52924 | -10.52322 | 37024 ft | 511 kts | 108° |
| 2026-05-08 02:31 | 54.51126 | -10.40488 | 37030 ft | 511 kts | 108° |
| 2026-05-08 02:32 | 54.49313 | -10.28635 | 37029 ft | 511 kts | 108° |
| 2026-05-08 02:32 | 54.47504 | -10.16888 | 37023 ft | 511 kts | 108° |
| 2026-05-08 02:33 | 54.45341 | -10.05296 | 37035 ft | 507 kts | 115° |
| 2026-05-08 02:33 | 54.42718 | -9.94041 | 37023 ft | 507 kts | 116° |
| 2026-05-08 02:34 | 54.40074 | -9.82803 | 37022 ft | 507 kts | 115° |
| 2026-05-08 02:34 | 54.37460 | -9.71599 | 37035 ft | 508 kts | 115° |
| 2026-05-08 02:35 | 54.34837 | -9.60326 | 37010 ft | 508 kts | 115° |
| 2026-05-08 02:35 | 54.32209 | -9.49082 | 37020 ft | 507 kts | 116° |
| 2026-05-08 02:36 | 54.29585 | -9.37927 | 37026 ft | 507 kts | 116° |
| 2026-05-08 02:36 | 54.26935 | -9.26719 | 37028 ft | 508 kts | 116° |
| 2026-05-08 02:37 | 54.24290 | -9.15596 | 37014 ft | 508 kts | 116° |
| 2026-05-08 02:37 | 54.21617 | -9.04413 | 37011 ft | 508 kts | 116° |
| 2026-05-08 02:38 | 54.18932 | -8.93232 | 37015 ft | 507 kts | 116° |
| 2026-05-08 02:38 | 54.16242 | -8.82093 | 36993 ft | 507 kts | 116° |
| 2026-05-08 02:39 | 54.13552 | -8.71009 | 37009 ft | 507 kts | 116° |
| 2026-05-08 02:39 | 54.10840 | -8.59891 | 37013 ft | 508 kts | 116° |
| 2026-05-08 02:40 | 54.08116 | -8.48781 | 37013 ft | 508 kts | 116° |
| 2026-05-08 02:40 | 54.05382 | -8.37684 | 37005 ft | 508 kts | 116° |
| 2026-05-08 02:41 | 54.02650 | -8.26650 | 37009 ft | 508 kts | 116° |
| 2026-05-08 02:41 | 53.99894 | -8.15576 | 37005 ft | 508 kts | 116° |
| 2026-05-08 02:42 | 53.97127 | -8.04516 | 36971 ft | 508 kts | 116° |
| 2026-05-08 02:42 | 53.94348 | -7.93461 | 36998 ft | 509 kts | 116° |
| 2026-05-08 02:43 | 53.91576 | -7.82488 | 36994 ft | 509 kts | 116° |
| 2026-05-08 02:43 | 53.88768 | -7.71429 | 36998 ft | 510 kts | 117° |
| 2026-05-08 02:44 | 53.85966 | -7.60444 | 36997 ft | 510 kts | 117° |
| 2026-05-08 02:44 | 53.83138 | -7.49411 | 36998 ft | 510 kts | 117° |
| 2026-05-08 02:45 | 53.80298 | -7.38379 | 36994 ft | 510 kts | 117° |
| 2026-05-08 02:45 | 53.77606 | -7.27337 | 36983 ft | 512 kts | 111° |
| 2026-05-08 02:46 | 53.75710 | -7.15708 | 37000 ft | 513 kts | 107° |
| 2026-05-08 02:46 | 53.73897 | -7.04013 | 36997 ft | 513 kts | 107° |
| 2026-05-08 02:47 | 53.72043 | -6.92353 | 36995 ft | 514 kts | 108° |
| 2026-05-08 02:47 | 53.70164 | -6.80790 | 36994 ft | 514 kts | 108° |
| 2026-05-08 02:48 | 53.68258 | -6.69166 | 36991 ft | 513 kts | 108° |
| 2026-05-08 02:48 | 53.66340 | -6.57541 | 36989 ft | 513 kts | 108° |
| 2026-05-08 02:49 | 53.64431 | -6.46035 | 36989 ft | 512 kts | 108° |
| 2026-05-08 02:49 | 53.62498 | -6.34465 | 36995 ft | 512 kts | 108° |
| 2026-05-08 02:50 | 53.60555 | -6.22906 | 36985 ft | 512 kts | 108° |
| 2026-05-08 02:50 | 53.58616 | -6.11449 | 36988 ft | 511 kts | 108° |
| 2026-05-08 02:51 | 53.56661 | -5.99976 | 36995 ft | 510 kts | 108° |
| 2026-05-08 02:51 | 53.54691 | -5.88486 | 37004 ft | 510 kts | 109° |
| 2026-05-08 02:52 | 53.52712 | -5.77020 | 37011 ft | 510 kts | 109° |
| 2026-05-08 02:52 | 53.50719 | -5.65540 | 37012 ft | 511 kts | 109° |
| 2026-05-08 02:53 | 53.48727 | -5.54066 | 37015 ft | 512 kts | 107° |
| 2026-05-08 02:53 | 53.47495 | -5.42357 | 37014 ft | 515 kts | 96° |
| 2026-05-08 02:54 | 53.46939 | -5.30352 | 37023 ft | 515 kts | 96° |
| 2026-05-08 02:54 | 53.46377 | -5.18337 | 37015 ft | 516 kts | 96° |
| 2026-05-08 02:55 | 53.45456 | -5.00437 | 37017 ft | 514 kts | 97° |
| 2026-05-08 02:56 | 53.44810 | -4.88490 | 37019 ft | 513 kts | 97° |
| 2026-05-08 02:56 | 53.44152 | -4.76557 | 37017 ft | 512 kts | 97° |
| 2026-05-08 02:57 | 53.43486 | -4.64667 | 37024 ft | 511 kts | 97° |
| 2026-05-08 02:57 | 53.42811 | -4.52803 | 37022 ft | 510 kts | 97° |
| 2026-05-08 02:58 | 53.42131 | -4.41052 | 37021 ft | 509 kts | 97° |
| 2026-05-08 02:58 | 53.41436 | -4.29250 | 37027 ft | 508 kts | 97° |
| 2026-05-08 02:59 | 53.40849 | -4.19449 | 37031 ft | 507 kts | 97° |
| 2026-05-08 02:59 | 53.40018 | -4.05774 | 37018 ft | 506 kts | 97° |
| 2026-05-08 03:00 | 53.39291 | -3.94043 | 37034 ft | 506 kts | 98° |
| 2026-05-08 03:00 | 53.38679 | -3.84302 | 37031 ft | 505 kts | 98° |
| 2026-05-08 03:01 | 53.37932 | -3.72585 | 37045 ft | 505 kts | 98° |
| 2026-05-08 03:01 | 53.37174 | -3.60877 | 37041 ft | 505 kts | 98° |
| 2026-05-08 03:02 | 53.36409 | -3.49244 | 37038 ft | 504 kts | 98° |
| 2026-05-08 03:02 | 53.35630 | -3.37561 | 37045 ft | 504 kts | 98° |
| 2026-05-08 03:03 | 53.34839 | -3.25891 | 37042 ft | 504 kts | 98° |
| 2026-05-08 03:03 | 53.34037 | -3.14223 | 37055 ft | 504 kts | 98° |
| 2026-05-08 03:04 | 53.33230 | -3.02659 | 37042 ft | 503 kts | 98° |
| 2026-05-08 03:04 | 53.32407 | -2.91021 | 37047 ft | 503 kts | 98° |
| 2026-05-08 03:05 | 53.31573 | -2.79396 | 37047 ft | 502 kts | 99° |
| 2026-05-08 03:05 | 53.30728 | -2.67785 | 37055 ft | 502 kts | 99° |
| 2026-05-08 03:06 | 53.29879 | -2.56264 | 37039 ft | 502 kts | 99° |
| 2026-05-08 03:06 | 53.29012 | -2.44667 | 37053 ft | 501 kts | 99° |
| 2026-05-08 03:07 | 53.28149 | -2.33257 | 37054 ft | 500 kts | 99° |
| 2026-05-08 03:07 | 53.27269 | -2.21787 | 37054 ft | 499 kts | 99° |
| 2026-05-08 03:08 | 53.26376 | -2.10297 | 37038 ft | 499 kts | 99° |
| 2026-05-08 03:08 | 53.25471 | -1.98793 | 37050 ft | 498 kts | 99° |
| 2026-05-08 03:09 | 53.24562 | -1.87400 | 37050 ft | 498 kts | 100° |
| 2026-05-08 03:09 | 53.23637 | -1.75935 | 37044 ft | 497 kts | 100° |
| 2026-05-08 03:10 | 53.22701 | -1.64476 | 37053 ft | 498 kts | 100° |
| 2026-05-08 03:10 | 53.21760 | -1.53100 | 37044 ft | 498 kts | 100° |
| 2026-05-08 03:11 | 53.20802 | -1.41646 | 37058 ft | 498 kts | 100° |
| 2026-05-08 03:11 | 53.19834 | -1.30208 | 37055 ft | 498 kts | 100° |
| 2026-05-08 03:12 | 53.18860 | -1.18832 | 37056 ft | 498 kts | 100° |
| 2026-05-08 03:12 | 53.17869 | -1.07399 | 37058 ft | 498 kts | 100° |
| 2026-05-08 03:13 | 53.16868 | -0.95978 | 37060 ft | 497 kts | 100° |
| 2026-05-08 03:13 | 53.15859 | -0.84590 | 37067 ft | 497 kts | 100° |
| 2026-05-08 03:14 | 53.14839 | -0.73207 | 37074 ft | 496 kts | 101° |
| 2026-05-08 03:14 | 53.13817 | -0.61929 | 37076 ft | 495 kts | 101° |
| 2026-05-08 03:15 | 53.12778 | -0.50591 | 37075 ft | 495 kts | 101° |
| 2026-05-08 03:15 | 53.11728 | -0.39249 | 37077 ft | 495 kts | 101° |
| 2026-05-08 03:16 | 53.10666 | -0.27913 | 37076 ft | 495 kts | 101° |
| 2026-05-08 03:16 | 53.09595 | -0.16593 | 37077 ft | 495 kts | 101° |
| 2026-05-08 03:17 | 53.08522 | -0.05362 | 37076 ft | 495 kts | 101° |
| 2026-05-08 03:17 | 53.07427 | 0.05968 | 37074 ft | 495 kts | 101° |
| 2026-05-08 03:18 | 53.06323 | 0.17292 | 37080 ft | 495 kts | 101° |
| 2026-05-08 03:18 | 53.05208 | 0.28598 | 37084 ft | 495 kts | 101° |
| 2026-05-08 03:19 | 53.04090 | 0.39829 | 37088 ft | 495 kts | 101° |
| 2026-05-08 03:19 | 53.02954 | 0.51121 | 37073 ft | 495 kts | 101° |
| 2026-05-08 03:20 | 53.01805 | 0.62437 | 37091 ft | 495 kts | 101° |
| 2026-05-08 03:20 | 53.00648 | 0.73724 | 37085 ft | 495 kts | 101° |
| 2026-05-08 03:21 | 52.99481 | 0.84997 | 37087 ft | 495 kts | 101° |
| 2026-05-08 03:21 | 52.98308 | 0.96191 | 37093 ft | 495 kts | 103° |
| 2026-05-08 03:22 | 52.96428 | 1.07140 | 37094 ft | 492 kts | 112° |
| 2026-05-08 03:22 | 52.93971 | 1.17736 | 37094 ft | 492 kts | 113° |
| 2026-05-08 03:23 | 52.91508 | 1.28341 | 37096 ft | 493 kts | 113° |
| 2026-05-08 03:23 | 52.89065 | 1.38970 | 37097 ft | 493 kts | 112° |
| 2026-05-08 03:24 | 52.86641 | 1.49542 | 37093 ft | 494 kts | 112° |
| 2026-05-08 03:24 | 52.84192 | 1.60173 | 37093 ft | 494 kts | 113° |
| 2026-05-08 03:25 | 52.81730 | 1.70798 | 37095 ft | 494 kts | 113° |
| 2026-05-08 03:25 | 52.79270 | 1.81359 | 37096 ft | 495 kts | 113° |
| 2026-05-08 03:26 | 52.76788 | 1.91958 | 37097 ft | 495 kts | 113° |
| 2026-05-08 03:26 | 52.74289 | 2.02579 | 37079 ft | 495 kts | 113° |
| 2026-05-08 03:27 | 52.71796 | 2.13124 | 37089 ft | 495 kts | 113° |
| 2026-05-08 03:27 | 52.69284 | 2.23698 | 37099 ft | 495 kts | 113° |
| 2026-05-08 03:28 | 52.66758 | 2.34275 | 37098 ft | 495 kts | 113° |
| 2026-05-08 03:28 | 52.64242 | 2.44765 | 37095 ft | 495 kts | 114° |
| 2026-05-08 03:29 | 52.61700 | 2.55310 | 37089 ft | 495 kts | 114° |
| 2026-05-08 03:29 | 52.59148 | 2.65845 | 37093 ft | 495 kts | 114° |
| 2026-05-08 03:30 | 52.55310 | 2.81608 | 37098 ft | 495 kts | 114° |
| 2026-05-08 03:31 | 52.49629 | 3.02077 | 37087 ft | 493 kts | 117° |
| 2026-05-08 03:32 | 52.45213 | 3.17352 | 37091 ft | 493 kts | 117° |
| 2026-05-08 03:32 | 52.42299 | 3.27463 | 37090 ft | 493 kts | 117° |
| 2026-05-08 03:33 | 52.39367 | 3.37614 | 37090 ft | 493 kts | 117° |
| 2026-05-08 03:33 | 52.36421 | 3.47771 | 37083 ft | 493 kts | 117° |
| 2026-05-08 03:34 | 52.33468 | 3.57905 | 37094 ft | 493 kts | 117° |
| 2026-05-08 03:34 | 52.30504 | 3.68032 | 37091 ft | 493 kts | 117° |
| 2026-05-08 03:35 | 52.27535 | 3.78132 | 37102 ft | 493 kts | 117° |
| 2026-05-08 03:35 | 52.24571 | 3.88171 | 37100 ft | 494 kts | 118° |
| 2026-05-08 03:36 | 52.21580 | 3.98263 | 37074 ft | 494 kts | 118° |
| 2026-05-08 03:36 | 52.18585 | 4.08325 | 37088 ft | 493 kts | 118° |
| 2026-05-08 03:37 | 52.15591 | 4.18338 | 37094 ft | 494 kts | 118° |
| 2026-05-08 03:37 | 52.12576 | 4.28382 | 37093 ft | 494 kts | 118° |
| 2026-05-08 03:38 | 52.09546 | 4.38435 | 37098 ft | 494 kts | 118° |
| 2026-05-08 03:38 | 52.06507 | 4.48473 | 37095 ft | 494 kts | 118° |
| 2026-05-08 03:39 | 52.03460 | 4.58495 | 37088 ft | 494 kts | 118° |
| 2026-05-08 03:39 | 52.00428 | 4.68432 | 37101 ft | 494 kts | 118° |
| 2026-05-08 03:40 | 51.97366 | 4.78422 | 37090 ft | 494 kts | 118° |
| 2026-05-08 03:40 | 51.94291 | 4.88413 | 37074 ft | 494 kts | 118° |
| 2026-05-08 03:41 | 51.91243 | 4.98275 | 37089 ft | 494 kts | 118° |
| 2026-05-08 03:41 | 51.88155 | 5.08227 | 37091 ft | 494 kts | 119° |
| 2026-05-08 03:42 | 51.85056 | 5.18174 | 37079 ft | 494 kts | 119° |
| 2026-05-08 03:42 | 51.81952 | 5.28096 | 37099 ft | 494 kts | 119° |
| 2026-05-08 03:43 | 51.78837 | 5.38014 | 37092 ft | 494 kts | 119° |
| 2026-05-08 03:43 | 51.75735 | 5.47851 | 37093 ft | 495 kts | 119° |
| 2026-05-08 03:44 | 51.72593 | 5.57772 | 37099 ft | 495 kts | 119° |
| 2026-05-08 03:44 | 51.69469 | 5.67600 | 37107 ft | 495 kts | 119° |
| 2026-05-08 03:45 | 51.66314 | 5.77484 | 37094 ft | 495 kts | 119° |
| 2026-05-08 03:45 | 51.63150 | 5.87355 | 37091 ft | 495 kts | 119° |
| 2026-05-08 03:46 | 51.59981 | 5.97205 | 37100 ft | 495 kts | 119° |
| 2026-05-08 03:46 | 51.56801 | 6.07047 | 37108 ft | 496 kts | 119° |
| 2026-05-08 03:47 | 51.53616 | 6.16868 | 37106 ft | 496 kts | 120° |
| 2026-05-08 03:47 | 51.50440 | 6.26621 | 37096 ft | 496 kts | 119° |
| 2026-05-08 03:48 | 51.47231 | 6.36435 | 37098 ft | 496 kts | 119° |
| 2026-05-08 03:48 | 51.44556 | 6.44588 | 37100 ft | 496 kts | 120° |
| 2026-05-08 03:49 | 51.41332 | 6.54378 | 37093 ft | 496 kts | 120° |
| 2026-05-08 03:49 | 51.38102 | 6.64150 | 37087 ft | 496 kts | 120° |
| 2026-05-08 03:50 | 51.34877 | 6.73866 | 37094 ft | 496 kts | 120° |
| 2026-05-08 03:50 | 51.31628 | 6.83617 | 37106 ft | 497 kts | 120° |
| 2026-05-08 03:51 | 51.28370 | 6.93359 | 37103 ft | 497 kts | 120° |
| 2026-05-08 03:51 | 51.25096 | 7.03107 | 37102 ft | 497 kts | 120° |
| 2026-05-08 03:52 | 51.21837 | 7.12776 | 37103 ft | 497 kts | 120° |
| 2026-05-08 03:52 | 51.18548 | 7.22494 | 37100 ft | 497 kts | 120° |
| 2026-05-08 03:53 | 51.15336 | 7.31952 | 37109 ft | 497 kts | 120° |
| 2026-05-08 03:53 | 51.12036 | 7.41628 | 37114 ft | 497 kts | 120° |
| 2026-05-08 03:54 | 51.08750 | 7.51229 | 37104 ft | 497 kts | 120° |
| 2026-05-08 03:54 | 51.05428 | 7.60897 | 37107 ft | 497 kts | 120° |
| 2026-05-08 03:55 | 51.02107 | 7.70526 | 37120 ft | 497 kts | 120° |
| 2026-05-08 03:55 | 50.98797 | 7.80090 | 37121 ft | 497 kts | 120° |
| 2026-05-08 03:56 | 50.95453 | 7.89720 | 37114 ft | 497 kts | 120° |
| 2026-05-08 03:56 | 50.91661 | 7.98876 | 37103 ft | 495 kts | 130° |
| 2026-05-08 03:57 | 50.86967 | 8.06704 | 37089 ft | 492 kts | 139° |
| 2026-05-08 03:57 | 50.81989 | 8.14161 | 37079 ft | 493 kts | 139° |
| 2026-05-08 03:58 | 50.77013 | 8.21656 | 37075 ft | 493 kts | 138° |
| 2026-05-08 03:58 | 50.72051 | 8.29173 | 37081 ft | 494 kts | 138° |
| 2026-05-08 03:59 | 50.67113 | 8.36647 | 37092 ft | 494 kts | 138° |
| 2026-05-08 03:59 | 50.62151 | 8.44131 | 37119 ft | 494 kts | 138° |
| 2026-05-08 04:00 | 50.57176 | 8.51610 | 37126 ft | 494 kts | 138° |
| 2026-05-08 04:00 | 50.52202 | 8.59062 | 37133 ft | 494 kts | 139° |
| 2026-05-08 04:01 | 50.47250 | 8.66461 | 37117 ft | 494 kts | 139° |
| 2026-05-08 04:01 | 50.42257 | 8.73899 | 37103 ft | 494 kts | 139° |
| 2026-05-08 04:02 | 50.37281 | 8.81366 | 37107 ft | 495 kts | 135° |
| 2026-05-08 04:02 | 50.33118 | 8.89933 | 37100 ft | 499 kts | 123° |
| 2026-05-08 04:03 | 50.30018 | 8.99653 | 37115 ft | 500 kts | 115° |
| 2026-05-08 04:03 | 50.25782 | 9.14614 | 37111 ft | 501 kts | 115° |
| 2026-05-08 04:04 | 50.22905 | 9.24542 | 37101 ft | 502 kts | 116° |
| 2026-05-08 04:04 | 50.19998 | 9.34448 | 37105 ft | 502 kts | 116° |
| 2026-05-08 04:05 | 50.17077 | 9.44361 | 37100 ft | 502 kts | 116° |
| 2026-05-08 04:05 | 50.14166 | 9.54209 | 37100 ft | 502 kts | 116° |
| 2026-05-08 04:06 | 50.11234 | 9.64098 | 37101 ft | 502 kts | 116° |
| 2026-05-08 04:06 | 50.08290 | 9.73984 | 37096 ft | 502 kts | 116° |
| 2026-05-08 04:07 | 50.04961 | 9.83424 | 37095 ft | 499 kts | 125° |
| 2026-05-08 04:07 | 50.01104 | 9.92407 | 37107 ft | 499 kts | 126° |
| 2026-05-08 04:08 | 49.97236 | 10.01381 | 37089 ft | 499 kts | 125° |
| 2026-05-08 04:08 | 49.93417 | 10.10313 | 37101 ft | 499 kts | 125° |
| 2026-05-08 04:09 | 49.89581 | 10.19302 | 37108 ft | 499 kts | 125° |
| 2026-05-08 04:09 | 49.85733 | 10.28291 | 37108 ft | 500 kts | 125° |
| 2026-05-08 04:10 | 49.81876 | 10.37266 | 37108 ft | 500 kts | 125° |
| 2026-05-08 04:10 | 49.78029 | 10.46182 | 37105 ft | 501 kts | 126° |
| 2026-05-08 04:11 | 49.74150 | 10.55144 | 37105 ft | 501 kts | 126° |
| 2026-05-08 04:11 | 49.70261 | 10.64099 | 37097 ft | 501 kts | 126° |
| 2026-05-08 04:12 | 49.66388 | 10.72987 | 37107 ft | 501 kts | 126° |
| 2026-05-08 04:12 | 49.62476 | 10.81937 | 37101 ft | 502 kts | 126° |
| 2026-05-08 04:13 | 49.58296 | 10.91466 | 37100 ft | 502 kts | 126° |
| 2026-05-08 04:13 | 49.54372 | 11.00383 | 37106 ft | 502 kts | 126° |
| 2026-05-08 04:14 | 49.50778 | 11.09615 | 37106 ft | 504 kts | 118° |
| 2026-05-08 04:14 | 49.47644 | 11.19277 | 37104 ft | 505 kts | 118° |
| 2026-05-08 04:15 | 49.44510 | 11.28948 | 37116 ft | 505 kts | 118° |
| 2026-05-08 04:15 | 49.41361 | 11.38528 | 37114 ft | 505 kts | 118° |
| 2026-05-08 04:16 | 49.38168 | 11.48141 | 37108 ft | 505 kts | 119° |
| 2026-05-08 04:16 | 49.35504 | 11.56126 | 37113 ft | 505 kts | 119° |
| 2026-05-08 04:17 | 49.31767 | 11.67293 | 37105 ft | 505 kts | 119° |
| 2026-05-08 04:17 | 49.29087 | 11.75275 | 37108 ft | 505 kts | 119° |
| 2026-05-08 04:18 | 49.25861 | 11.84850 | 37103 ft | 506 kts | 119° |
| 2026-05-08 04:18 | 49.22621 | 11.94431 | 37104 ft | 506 kts | 119° |
| 2026-05-08 04:19 | 49.19402 | 12.03915 | 37081 ft | 506 kts | 119° |
| 2026-05-08 04:19 | 49.16148 | 12.13467 | 37089 ft | 506 kts | 119° |
| 2026-05-08 04:20 | 49.12883 | 12.23014 | 37096 ft | 507 kts | 120° |
| 2026-05-08 04:20 | 49.09600 | 12.32578 | 37096 ft | 507 kts | 120° |
| 2026-05-08 04:21 | 49.06341 | 12.42035 | 37081 ft | 507 kts | 120° |
| 2026-05-08 04:21 | 49.03044 | 12.51571 | 37087 ft | 508 kts | 120° |
| 2026-05-08 04:22 | 48.99740 | 12.61089 | 37092 ft | 508 kts | 120° |
| 2026-05-08 04:22 | 48.96419 | 12.70622 | 37090 ft | 509 kts | 120° |
| 2026-05-08 04:23 | 48.93087 | 12.80153 | 37089 ft | 509 kts | 120° |
| 2026-05-08 04:23 | 48.89765 | 12.89617 | 37085 ft | 510 kts | 120° |
| 2026-05-08 04:24 | 48.86417 | 12.99122 | 37094 ft | 509 kts | 120° |
| 2026-05-08 04:24 | 48.83085 | 13.08547 | 37086 ft | 509 kts | 120° |
| 2026-05-08 04:25 | 48.79724 | 13.18022 | 37097 ft | 509 kts | 120° |
| 2026-05-08 04:25 | 48.76354 | 13.27486 | 37083 ft | 509 kts | 120° |
| 2026-05-08 04:26 | 48.72982 | 13.36923 | 37082 ft | 508 kts | 121° |
| 2026-05-08 04:26 | 48.69628 | 13.46276 | 37089 ft | 508 kts | 121° |
| 2026-05-08 04:27 | 48.66240 | 13.55692 | 37084 ft | 509 kts | 121° |
| 2026-05-08 04:27 | 48.62781 | 13.65042 | 37086 ft | 508 kts | 122° |
| 2026-05-08 04:28 | 48.59200 | 13.74261 | 37082 ft | 508 kts | 123° |
| 2026-05-08 04:28 | 48.55618 | 13.83425 | 37089 ft | 508 kts | 123° |
| 2026-05-08 04:29 | 48.52029 | 13.92644 | 37089 ft | 508 kts | 123° |
| 2026-05-08 04:29 | 48.48446 | 14.01849 | 37085 ft | 509 kts | 123° |
| 2026-05-08 04:30 | 48.44883 | 14.10978 | 37082 ft | 509 kts | 123° |
| 2026-05-08 04:30 | 48.41277 | 14.20180 | 37068 ft | 509 kts | 123° |
| 2026-05-08 04:31 | 48.37660 | 14.29376 | 37064 ft | 510 kts | 123° |
| 2026-05-08 04:31 | 48.34037 | 14.38557 | 37096 ft | 510 kts | 123° |
| 2026-05-08 04:32 | 48.30422 | 14.47686 | 37095 ft | 511 kts | 123° |
| 2026-05-08 04:32 | 48.26776 | 14.56860 | 37094 ft | 511 kts | 123° |
| 2026-05-08 04:33 | 48.23143 | 14.65972 | 37091 ft | 511 kts | 123° |
| 2026-05-08 04:33 | 48.19484 | 14.75119 | 37079 ft | 511 kts | 124° |
| 2026-05-08 04:34 | 48.15821 | 14.84243 | 37084 ft | 511 kts | 124° |
| 2026-05-08 04:34 | 48.12144 | 14.93370 | 37086 ft | 511 kts | 124° |
| 2026-05-08 04:35 | 48.08491 | 15.02409 | 37074 ft | 511 kts | 124° |
| 2026-05-08 04:35 | 48.04805 | 15.11498 | 37077 ft | 510 kts | 124° |
| 2026-05-08 04:36 | 48.01114 | 15.20568 | 37089 ft | 510 kts | 124° |
| 2026-05-08 04:36 | 47.97419 | 15.29619 | 37089 ft | 510 kts | 124° |
| 2026-05-08 04:37 | 47.93741 | 15.38595 | 37090 ft | 510 kts | 124° |
| 2026-05-08 04:37 | 47.90027 | 15.47633 | 37086 ft | 510 kts | 124° |
| 2026-05-08 04:38 | 47.86306 | 15.56657 | 37089 ft | 510 kts | 124° |
| 2026-05-08 04:38 | 47.82603 | 15.65607 | 37094 ft | 510 kts | 124° |
| 2026-05-08 04:39 | 47.78873 | 15.74591 | 37085 ft | 510 kts | 124° |
| 2026-05-08 04:39 | 47.75127 | 15.83586 | 37082 ft | 511 kts | 125° |
| 2026-05-08 04:40 | 47.71381 | 15.92547 | 37087 ft | 510 kts | 125° |
| 2026-05-08 04:40 | 47.67629 | 16.01498 | 37091 ft | 510 kts | 125° |
| 2026-05-08 04:41 | 47.63894 | 16.10376 | 37081 ft | 510 kts | 125° |
| 2026-05-08 04:41 | 47.60123 | 16.19313 | 37084 ft | 510 kts | 125° |
| 2026-05-08 04:42 | 47.56374 | 16.28167 | 37078 ft | 510 kts | 125° |
| 2026-05-08 04:42 | 47.52596 | 16.37064 | 37081 ft | 509 kts | 125° |
| 2026-05-08 04:43 | 47.48821 | 16.45924 | 37076 ft | 509 kts | 126° |
| 2026-05-08 04:43 | 47.45036 | 16.54781 | 37078 ft | 509 kts | 126° |
| 2026-05-08 04:44 | 47.41514 | 16.63784 | 37069 ft | 511 kts | 118° |
| 2026-05-08 04:44 | 47.38561 | 16.73345 | 37065 ft | 512 kts | 117° |
| 2026-05-08 04:45 | 47.35629 | 16.82928 | 37069 ft | 512 kts | 117° |
| 2026-05-08 04:45 | 47.32663 | 16.92475 | 37077 ft | 511 kts | 118° |
| 2026-05-08 04:46 | 47.29689 | 17.01933 | 37080 ft | 511 kts | 118° |
| 2026-05-08 04:46 | 47.26686 | 17.11429 | 37079 ft | 511 kts | 118° |
| 2026-05-08 04:47 | 47.23671 | 17.20935 | 37063 ft | 512 kts | 118° |
| 2026-05-08 04:47 | 47.20649 | 17.30430 | 37080 ft | 512 kts | 118° |
| 2026-05-08 04:48 | 47.17636 | 17.39866 | 37079 ft | 512 kts | 118° |
| 2026-05-08 04:48 | 47.14594 | 17.49356 | 37080 ft | 512 kts | 118° |
| 2026-05-08 04:49 | 47.11547 | 17.58826 | 37063 ft | 513 kts | 118° |
| 2026-05-08 04:49 | 47.08510 | 17.68231 | 37076 ft | 513 kts | 119° |
| 2026-05-08 04:50 | 47.05442 | 17.77696 | 37077 ft | 514 kts | 119° |
| 2026-05-08 04:50 | 47.02364 | 17.87160 | 37054 ft | 514 kts | 119° |
| 2026-05-08 04:51 | 46.99273 | 17.96626 | 37069 ft | 514 kts | 119° |
| 2026-05-08 04:51 | 46.96172 | 18.06088 | 37065 ft | 515 kts | 119° |
| 2026-05-08 04:52 | 46.93074 | 18.15504 | 37063 ft | 516 kts | 119° |
| 2026-05-08 04:52 | 46.89947 | 18.24977 | 37057 ft | 517 kts | 119° |
| 2026-05-08 04:53 | 46.86808 | 18.34452 | 37059 ft | 517 kts | 120° |
| 2026-05-08 04:53 | 46.83679 | 18.43862 | 37063 ft | 517 kts | 120° |
| 2026-05-08 04:54 | 46.80528 | 18.53304 | 37063 ft | 517 kts | 120° |
| 2026-05-08 04:54 | 46.77375 | 18.62717 | 37044 ft | 516 kts | 120° |
| 2026-05-08 04:55 | 46.74211 | 18.72128 | 37056 ft | 516 kts | 120° |
| 2026-05-08 04:55 | 46.71042 | 18.81519 | 37061 ft | 516 kts | 120° |
| 2026-05-08 04:56 | 46.67883 | 18.90850 | 37057 ft | 516 kts | 120° |
| 2026-05-08 04:56 | 46.64690 | 19.00244 | 37050 ft | 515 kts | 120° |
| 2026-05-08 04:57 | 46.61521 | 19.09538 | 37056 ft | 515 kts | 120° |
| 2026-05-08 04:57 | 46.58325 | 19.18874 | 37051 ft | 515 kts | 120° |
| 2026-05-08 04:58 | 46.55120 | 19.28206 | 37077 ft | 516 kts | 120° |
| 2026-05-08 04:58 | 46.51922 | 19.37482 | 37068 ft | 516 kts | 120° |
| 2026-05-08 04:59 | 46.48695 | 19.46812 | 37064 ft | 517 kts | 120° |
| 2026-05-08 04:59 | 46.45460 | 19.56131 | 37060 ft | 517 kts | 121° |
| 2026-05-08 05:00 | 46.42217 | 19.65444 | 37039 ft | 517 kts | 121° |
| 2026-05-08 05:00 | 46.38991 | 19.74673 | 37051 ft | 516 kts | 121° |
| 2026-05-08 05:01 | 46.35737 | 19.83949 | 37053 ft | 516 kts | 121° |
| 2026-05-08 05:01 | 46.32475 | 19.93216 | 37054 ft | 516 kts | 121° |
| 2026-05-08 05:02 | 46.29227 | 20.02411 | 37055 ft | 515 kts | 121° |
| 2026-05-08 05:02 | 46.25955 | 20.11641 | 37055 ft | 515 kts | 121° |
| 2026-05-08 05:03 | 46.22680 | 20.20852 | 37053 ft | 515 kts | 121° |
| 2026-05-08 05:03 | 46.19395 | 20.30061 | 37055 ft | 515 kts | 121° |
| 2026-05-08 05:04 | 46.15971 | 20.39134 | 37032 ft | 511 kts | 127° |
| 2026-05-08 05:04 | 46.11701 | 20.47149 | 37060 ft | 505 kts | 136° |
| 2026-05-08 05:05 | 46.07042 | 20.54743 | 37056 ft | 505 kts | 136° |
| 2026-05-08 05:05 | 46.02384 | 20.62361 | 37054 ft | 506 kts | 136° |
| 2026-05-08 05:06 | 45.97752 | 20.69986 | 37051 ft | 506 kts | 135° |
| 2026-05-08 05:06 | 45.93147 | 20.77575 | 37055 ft | 506 kts | 135° |
| 2026-05-08 05:07 | 45.89258 | 20.83972 | 37055 ft | 507 kts | 135° |
| 2026-05-08 05:07 | 45.84639 | 20.91543 | 37041 ft | 507 kts | 135° |
| 2026-05-08 05:08 | 45.79988 | 20.99146 | 37057 ft | 506 kts | 135° |
| 2026-05-08 05:08 | 45.75330 | 21.06737 | 37062 ft | 506 kts | 135° |
| 2026-05-08 05:09 | 45.70697 | 21.14266 | 37049 ft | 506 kts | 135° |
| 2026-05-08 05:09 | 45.66039 | 21.21817 | 37050 ft | 506 kts | 135° |
| 2026-05-08 05:10 | 45.59042 | 21.33120 | 37052 ft | 506 kts | 135° |
| 2026-05-08 05:11 | 45.54370 | 21.40641 | 37037 ft | 506 kts | 135° |
| 2026-05-08 05:11 | 45.49720 | 21.48107 | 37046 ft | 506 kts | 136° |
| 2026-05-08 05:12 | 45.45041 | 21.55598 | 37049 ft | 505 kts | 135° |
| 2026-05-08 05:12 | 45.40357 | 21.63079 | 37060 ft | 506 kts | 135° |
| 2026-05-08 05:13 | 45.35666 | 21.70549 | 37055 ft | 506 kts | 136° |
| 2026-05-08 05:13 | 45.30990 | 21.77976 | 37043 ft | 506 kts | 135° |
| 2026-05-08 05:14 | 45.26290 | 21.85422 | 37066 ft | 506 kts | 135° |
| 2026-05-08 05:14 | 45.21585 | 21.92856 | 37057 ft | 506 kts | 136° |
| 2026-05-08 05:15 | 45.16865 | 22.00290 | 37063 ft | 507 kts | 136° |
| 2026-05-08 05:15 | 45.12169 | 22.07669 | 37068 ft | 507 kts | 136° |
| 2026-05-08 05:16 | 45.07441 | 22.15079 | 37068 ft | 506 kts | 136° |
| 2026-05-08 05:16 | 45.02710 | 22.22476 | 37065 ft | 506 kts | 136° |
| 2026-05-08 05:17 | 44.97979 | 22.29850 | 37077 ft | 505 kts | 136° |
| 2026-05-08 05:17 | 44.93279 | 22.37157 | 37047 ft | 505 kts | 136° |
| 2026-05-08 05:18 | 44.88551 | 22.44488 | 37068 ft | 505 kts | 136° |
| 2026-05-08 05:18 | 44.83821 | 22.51803 | 37058 ft | 505 kts | 136° |
| 2026-05-08 05:19 | 44.79075 | 22.59124 | 37058 ft | 505 kts | 136° |
| 2026-05-08 05:19 | 44.74360 | 22.66377 | 37075 ft | 505 kts | 136° |
| 2026-05-08 05:20 | 44.69607 | 22.73671 | 37054 ft | 505 kts | 136° |
| 2026-05-08 05:20 | 44.64841 | 22.80965 | 37051 ft | 505 kts | 136° |
| 2026-05-08 05:21 | 44.60107 | 22.88191 | 37065 ft | 505 kts | 136° |
| 2026-05-08 05:21 | 44.55340 | 22.95450 | 37064 ft | 506 kts | 136° |
| 2026-05-08 05:22 | 44.50554 | 23.02716 | 37059 ft | 506 kts | 136° |
| 2026-05-08 05:22 | 44.45795 | 23.09925 | 37062 ft | 507 kts | 136° |
| 2026-05-08 05:23 | 44.41002 | 23.17167 | 37053 ft | 506 kts | 136° |
| 2026-05-08 05:23 | 44.36203 | 23.24398 | 37059 ft | 506 kts | 136° |
| 2026-05-08 05:24 | 44.31434 | 23.31565 | 37055 ft | 507 kts | 136° |
| 2026-05-08 05:24 | 44.26627 | 23.38771 | 37052 ft | 506 kts | 136° |
| 2026-05-08 05:25 | 44.21823 | 23.45954 | 37058 ft | 506 kts | 136° |
| 2026-05-08 05:25 | 44.17014 | 23.53127 | 37060 ft | 506 kts | 136° |
| 2026-05-08 05:26 | 44.12192 | 23.60300 | 37053 ft | 506 kts | 136° |
| 2026-05-08 05:26 | 44.07411 | 23.67394 | 37052 ft | 506 kts | 136° |
| 2026-05-08 05:27 | 44.02587 | 23.74533 | 37040 ft | 506 kts | 136° |
| 2026-05-08 05:27 | 43.97755 | 23.81666 | 37052 ft | 506 kts | 136° |
| 2026-05-08 05:28 | 43.92918 | 23.88788 | 37048 ft | 507 kts | 136° |
| 2026-05-08 05:28 | 43.88099 | 23.95867 | 37053 ft | 507 kts | 136° |
| 2026-05-08 05:29 | 43.83240 | 24.02987 | 37054 ft | 508 kts | 136° |
| 2026-05-08 05:29 | 43.78370 | 24.10104 | 37059 ft | 508 kts | 136° |
| 2026-05-08 05:30 | 43.73527 | 24.17168 | 37038 ft | 509 kts | 137° |
| 2026-05-08 05:30 | 43.68644 | 24.24269 | 37058 ft | 508 kts | 137° |
| 2026-05-08 05:31 | 43.63615 | 24.31144 | 37043 ft | 507 kts | 140° |
| 2026-05-08 05:31 | 43.58482 | 24.37851 | 37063 ft | 507 kts | 140° |
| 2026-05-08 05:32 | 43.53396 | 24.44529 | 37041 ft | 508 kts | 139° |
| 2026-05-08 05:32 | 43.48296 | 24.51277 | 37063 ft | 508 kts | 139° |
| 2026-05-08 05:33 | 43.43194 | 24.58028 | 37056 ft | 508 kts | 140° |
| 2026-05-08 05:33 | 43.38096 | 24.64753 | 37053 ft | 508 kts | 139° |
| 2026-05-08 05:34 | 43.33017 | 24.71433 | 37062 ft | 508 kts | 140° |
| 2026-05-08 05:34 | 43.27903 | 24.78143 | 37058 ft | 509 kts | 140° |
| 2026-05-08 05:35 | 43.22766 | 24.84867 | 37057 ft | 509 kts | 139° |
| 2026-05-08 05:35 | 43.17665 | 24.91528 | 37062 ft | 509 kts | 139° |
| 2026-05-08 05:36 | 43.12514 | 24.98240 | 37051 ft | 510 kts | 140° |
| 2026-05-08 05:36 | 43.07357 | 25.04945 | 37065 ft | 511 kts | 140° |
| 2026-05-08 05:37 | 43.02222 | 25.11612 | 37061 ft | 512 kts | 140° |
| 2026-05-08 05:37 | 42.97040 | 25.18327 | 37067 ft | 513 kts | 140° |
| 2026-05-08 05:38 | 42.91849 | 25.25038 | 37061 ft | 514 kts | 140° |
| 2026-05-08 05:38 | 42.86644 | 25.31750 | 37053 ft | 514 kts | 140° |
| 2026-05-08 05:39 | 42.81466 | 25.38410 | 37068 ft | 515 kts | 140° |
| 2026-05-08 05:39 | 42.76231 | 25.45127 | 37073 ft | 517 kts | 140° |
| 2026-05-08 05:40 | 42.70994 | 25.51831 | 37066 ft | 517 kts | 140° |
| 2026-05-08 05:40 | 42.65744 | 25.58534 | 37066 ft | 518 kts | 140° |
| 2026-05-08 05:41 | 42.60520 | 25.65190 | 37056 ft | 518 kts | 140° |
| 2026-05-08 05:41 | 42.55245 | 25.71893 | 37092 ft | 518 kts | 141° |
| 2026-05-08 05:42 | 42.49960 | 25.78592 | 37089 ft | 520 kts | 140° |
| 2026-05-08 05:42 | 42.44695 | 25.85251 | 37087 ft | 520 kts | 140° |
| 2026-05-08 05:43 | 42.39393 | 25.91942 | 37091 ft | 521 kts | 141° |
| 2026-05-08 05:43 | 42.34073 | 25.98640 | 37094 ft | 522 kts | 140° |
| 2026-05-08 05:44 | 42.28793 | 26.05287 | 37088 ft | 524 kts | 139° |
| 2026-05-08 05:44 | 42.24021 | 26.12812 | 37102 ft | 530 kts | 128° |
| 2026-05-08 05:45 | 42.20188 | 26.21374 | 37105 ft | 534 kts | 120° |
| 2026-05-08 05:45 | 42.16620 | 26.30142 | 37091 ft | 535 kts | 120° |
| 2026-05-08 05:46 | 42.12998 | 26.38906 | 37087 ft | 535 kts | 121° |
| 2026-05-08 05:46 | 42.09335 | 26.47636 | 37083 ft | 535 kts | 121° |
| 2026-05-08 05:47 | 42.05658 | 26.56356 | 37095 ft | 534 kts | 121° |
| 2026-05-08 05:47 | 42.01986 | 26.65056 | 37081 ft | 534 kts | 121° |
| 2026-05-08 05:48 | 41.98337 | 26.73681 | 37093 ft | 533 kts | 121° |
| 2026-05-08 05:48 | 41.94574 | 26.82324 | 37091 ft | 534 kts | 123° |
| 2026-05-08 05:49 | 41.90695 | 26.90805 | 37083 ft | 531 kts | 123° |
| 2026-05-08 05:49 | 41.86870 | 26.99232 | 37097 ft | 532 kts | 123° |
| 2026-05-08 05:50 | 41.82986 | 27.07764 | 37105 ft | 541 kts | 123° |
| 2026-05-08 05:50 | 41.78953 | 27.16370 | 37105 ft | 544 kts | 126° |
| 2026-05-08 05:51 | 41.74622 | 27.24580 | 37077 ft | 535 kts | 127° |
| 2026-05-08 05:51 | 41.70165 | 27.32482 | 37074 ft | 526 kts | 141° |
| 2026-05-08 05:51 | 41.67292 | 27.35332 | 37100 ft | 517 kts | 156° |
| 2026-05-08 05:52 | 41.64015 | 27.37138 | 36976 ft | 501 kts | 172° |
| 2026-05-08 05:52 | 41.60627 | 27.38116 | 36560 ft | 498 kts | 174° |
| 2026-05-08 05:52 | 41.57211 | 27.39150 | 35777 ft | 502 kts | 172° |
| 2026-05-08 05:52 | 41.53845 | 27.40306 | 35020 ft | 497 kts | 170° |
| 2026-05-08 05:53 | 41.50626 | 27.42027 | 34272 ft | 503 kts | 153° |
| 2026-05-08 05:53 | 41.47879 | 27.44919 | 33480 ft | 505 kts | 134° |
| 2026-05-08 05:53 | 41.45850 | 27.48714 | 32704 ft | 501 kts | 116° |
| 2026-05-08 05:53 | 41.44664 | 27.53022 | 31950 ft | 491 kts | 100° |
| 2026-05-08 05:54 | 41.44219 | 27.57479 | 31213 ft | 479 kts | 88° |
| 2026-05-08 05:54 | 41.44561 | 27.61821 | 30497 ft | 467 kts | 71° |
| 2026-05-08 05:54 | 41.45450 | 27.65913 | 29790 ft | 466 kts | 70° |
| 2026-05-08 05:54 | 41.46359 | 27.70089 | 28742 ft | 472 kts | 71° |
| 2026-05-08 05:55 | 41.47228 | 27.74348 | 27713 ft | 478 kts | 72° |
| 2026-05-08 05:55 | 41.48066 | 27.78666 | 26691 ft | 482 kts | 73° |
| 2026-05-08 05:55 | 41.48895 | 27.83013 | 25738 ft | 483 kts | 73° |
| 2026-05-08 05:55 | 41.49440 | 27.87327 | 24713 ft | 462 kts | 88° |
| 2026-05-08 05:56 | 41.49312 | 27.90112 | 24097 ft | 450 kts | 99° |
| 2026-05-08 05:56 | 41.48462 | 27.94030 | 23099 ft | 431 kts | 114° |
| 2026-05-08 05:56 | 41.47007 | 27.97437 | 22037 ft | 415 kts | 128° |
| 2026-05-08 05:56 | 41.45103 | 28.00231 | 21031 ft | 400 kts | 140° |
| 2026-05-08 05:57 | 41.42103 | 28.02868 | 19727 ft | 383 kts | 158° |
| 2026-05-08 05:57 | 41.40441 | 28.03719 | 19086 ft | 375 kts | 166° |
| 2026-05-08 05:57 | 41.37920 | 28.04364 | 18132 ft | 364 kts | 177° |
| 2026-05-08 05:57 | 41.35449 | 28.04466 | 17252 ft | 353 kts | 182° |
| 2026-05-08 05:58 | 41.33044 | 28.04929 | 16529 ft | 353 kts | 163° |
| 2026-05-08 05:58 | 41.30780 | 28.06386 | 15924 ft | 368 kts | 149° |
| 2026-05-08 05:58 | 41.28651 | 28.08332 | 15272 ft | 373 kts | 145° |
| 2026-05-08 05:58 | 41.26544 | 28.10394 | 14644 ft | 377 kts | 144° |
| 2026-05-08 05:59 | 41.24427 | 28.12490 | 14009 ft | 381 kts | 144° |
| 2026-05-08 05:59 | 41.22292 | 28.14604 | 13293 ft | 383 kts | 144° |
| 2026-05-08 05:59 | 41.20142 | 28.16723 | 12587 ft | 386 kts | 144° |
| 2026-05-08 05:59 | 41.17989 | 28.18835 | 11851 ft | 377 kts | 144° |
| 2026-05-08 06:00 | 41.15942 | 28.20837 | 11144 ft | 354 kts | 145° |
| 2026-05-08 06:00 | 41.14005 | 28.22726 | 10463 ft | 337 kts | 145° |
| 2026-05-08 06:00 | 41.12154 | 28.24528 | 9768 ft | 323 kts | 145° |
| 2026-05-08 06:00 | 41.10386 | 28.26245 | 9050 ft | 316 kts | 146° |
| 2026-05-08 06:01 | 41.08595 | 28.27983 | 8359 ft | 321 kts | 146° |
| 2026-05-08 06:01 | 41.06810 | 28.29715 | 7657 ft | 312 kts | 146° |
| 2026-05-08 06:01 | 41.05085 | 28.31390 | 6972 ft | 301 kts | 146° |
| 2026-05-08 06:01 | 41.03421 | 28.33002 | 6286 ft | 292 kts | 147° |
| 2026-05-08 06:02 | 41.01805 | 28.34568 | 5594 ft | 284 kts | 147° |
| 2026-05-08 06:02 | 41.00276 | 28.36048 | 5268 ft | 269 kts | 147° |
| 2026-05-08 06:02 | 40.98783 | 28.37492 | 5093 ft | 263 kts | 147° |
| 2026-05-08 06:02 | 40.97406 | 28.39011 | 5012 ft | 257 kts | 131° |
| 2026-05-08 06:03 | 40.96457 | 28.41068 | 5026 ft | 265 kts | 120° |
| 2026-05-08 06:03 | 40.95576 | 28.43201 | 5025 ft | 262 kts | 122° |
| 2026-05-08 06:03 | 40.94690 | 28.45297 | 5012 ft | 259 kts | 122° |
| 2026-05-08 06:03 | 40.93814 | 28.47352 | 5012 ft | 254 kts | 122° |
| 2026-05-08 06:04 | 40.92951 | 28.49366 | 5011 ft | 250 kts | 122° |
| 2026-05-08 06:04 | 40.92101 | 28.51338 | 5020 ft | 250 kts | 122° |
| 2026-05-08 06:04 | 40.91235 | 28.53342 | 5032 ft | 251 kts | 122° |
| 2026-05-08 06:04 | 40.90366 | 28.55350 | 5052 ft | 252 kts | 122° |
| 2026-05-08 06:05 | 40.89530 | 28.57384 | 5030 ft | 250 kts | 113° |
| 2026-05-08 06:05 | 40.89362 | 28.59638 | 5032 ft | 251 kts | 77° |
| 2026-05-08 06:05 | 40.89909 | 28.61851 | 5084 ft | 257 kts | 70° |
| 2026-05-08 06:05 | 40.90493 | 28.64076 | 5065 ft | 262 kts | 70° |
| 2026-05-08 06:06 | 40.91079 | 28.66341 | 5017 ft | 255 kts | 71° |
| 2026-05-08 06:06 | 40.91723 | 28.68461 | 5004 ft | 244 kts | 54° |
| 2026-05-08 06:06 | 40.92961 | 28.69950 | 5058 ft | 242 kts | 27° |
| 2026-05-08 06:06 | 40.94441 | 28.71014 | 5063 ft | 242 kts | 26° |
| 2026-05-08 06:07 | 40.95926 | 28.72103 | 5058 ft | 245 kts | 26° |
| 2026-05-08 06:07 | 40.97429 | 28.73097 | 5014 ft | 236 kts | 13° |
| 2026-05-08 06:07 | 40.99017 | 28.73343 | 5039 ft | 229 kts | 356° |
| 2026-05-08 06:07 | 41.00623 | 28.73346 | 5059 ft | 232 kts | 356° |
| 2026-05-08 06:08 | 41.02262 | 28.73328 | 4941 ft | 239 kts | 355° |
| 2026-05-08 06:08 | 41.03901 | 28.73294 | 4601 ft | 234 kts | 355° |
| 2026-05-08 06:08 | 41.05485 | 28.73260 | 4300 ft | 220 kts | 355° |
| 2026-05-08 06:08 | 41.06974 | 28.73226 | 4027 ft | 207 kts | 355° |
| 2026-05-08 06:09 | 41.08404 | 28.73190 | 3806 ft | 207 kts | 355° |
| 2026-05-08 06:09 | 41.09853 | 28.73154 | 3508 ft | 205 kts | 355° |
| 2026-05-08 06:09 | 41.11252 | 28.73124 | 3236 ft | 195 kts | 355° |
| 2026-05-08 06:09 | 41.12575 | 28.73093 | 2956 ft | 189 kts | 355° |
| 2026-05-08 06:10 | 41.13879 | 28.73065 | 2709 ft | 183 kts | 355° |
| 2026-05-08 06:10 | 41.15118 | 28.73035 | 2479 ft | 174 kts | 355° |
| 2026-05-08 06:10 | 41.16240 | 28.73009 | 2272 ft | 154 kts | 354° |
| 2026-05-08 06:10 | 41.17345 | 28.72980 | 2052 ft | 161 kts | 355° |
| 2026-05-08 06:11 | 41.18462 | 28.72956 | 1847 ft | 159 kts | 355° |
| 2026-05-08 06:11 | 41.19568 | 28.72930 | 1636 ft | 159 kts | 356° |
| 2026-05-08 06:11 | 41.20625 | 28.72906 | 1411 ft | 155 kts | 356° |
| 2026-05-08 06:11 | 41.21706 | 28.72875 | 1205 ft | 155 kts | 356° |
| 2026-05-08 06:12 | 41.22787 | 28.72854 | 1022 ft | 155 kts | 358° |
| 2026-05-08 06:12 | 41.23856 | 28.72855 | 815 ft | 151 kts | 356° |
| 2026-05-08 06:12 | 41.24913 | 28.72807 | 626 ft | 152 kts | 355° |
| 2026-05-08 06:12 | 41.25955 | 28.72786 | 452 ft | 153 kts | 356° |
| 2026-05-08 06:13 | 41.27012 | 28.72760 | 337 ft | 145 kts | 356° |
| 2026-05-08 06:13 | 41.27900 | 28.72736 | 335 ft | 106 kts | 359° |
| 2026-05-08 06:13 | 41.28454 | 28.72726 | 336 ft | 50 kts | 1° |
| 2026-05-08 06:13 | 41.28679 | 28.72830 | 336 ft | 16 kts | 29° |
| 2026-05-08 06:14 | 41.28727 | 28.72935 | 334 ft | 15 kts | 122° |
| 2026-05-08 06:14 | 41.28621 | 28.72949 | 335 ft | 22 kts | 183° |
| 2026-05-08 06:14 | 41.28430 | 28.72954 | 337 ft | 28 kts | 179° |
| 2026-05-08 06:14 | 41.28232 | 28.72956 | 336 ft | 28 kts | 179° |
| 2026-05-08 06:15 | 41.28035 | 28.72962 | 334 ft | 28 kts | 178° |
| 2026-05-08 06:15 | 41.27839 | 28.72967 | 335 ft | 28 kts | 179° |
| 2026-05-08 06:15 | 41.27642 | 28.72970 | 338 ft | 28 kts | 179° |
| 2026-05-08 06:15 | 41.27451 | 28.72974 | 335 ft | 19 kts | 179° |
| 2026-05-08 06:16 | 41.27394 | 28.73066 | 339 ft | 15 kts | 92° |
| 2026-05-08 06:16 | 41.27394 | 28.73312 | 339 ft | 34 kts | 88° |
| 2026-05-08 06:16 | 41.27399 | 28.73625 | 339 ft | 33 kts | 89° |
| 2026-05-08 06:16 | 41.27397 | 28.73835 | 339 ft | 7 kts | 114° |
| 2026-05-08 06:17 | 41.27232 | 28.73865 | 333 ft | 17 kts | 180° |
| 2026-05-08 06:17 | 41.27118 | 28.73864 | 338 ft | 17 kts | 178° |
| 2026-05-08 06:17 | 41.27009 | 28.73869 | 335 ft | 14 kts | 179° |
| 2026-05-08 06:18 | 41.26914 | 28.73872 | 338 ft | 14 kts | 179° |
| 2026-05-08 06:18 | 41.26818 | 28.73873 | 334 ft | 14 kts | 179° |
| 2026-05-08 06:18 | 41.26723 | 28.73875 | 336 ft | 14 kts | 179° |
| 2026-05-08 06:18 | 41.26628 | 28.73878 | 336 ft | 14 kts | 178° |
| 2026-05-08 06:19 | 41.26536 | 28.73876 | 337 ft | 12 kts | 194° |
| 2026-05-08 06:19 | 41.26499 | 28.73800 | 336 ft | 1 kts | 249° |
| 2026-05-08 06:19 | 41.26496 | 28.73790 | 335 ft | 0 kts | 250° |